<?xml version="1.0" encoding="UTF-8" standalone="no" ?>
<gpx xmlns="http://www.topografix.com/GPX/1/1" xmlns:xsi="http://www.w3.org/2001/XMLSchema-instance" xsi:schemaLocation="http://www.topografix.com/GPX/1/1 http://www.topografix.com/GPX/1/1/gpx.xsd" version="1.1" creator="VisuGPX - https://www.visugpx.com">
  <metadata>
    <name>Salies-de-Béarn</name>
    <desc><![CDATA[Une petite randonnée, mais très belle, surtout après la longue montée d\'un kilomètre. Au début un peu de goudron, puis des petits chemins très beaux, et pour terminer une longue ligne droite très propre sur une ancienne voie ferrée.]]></desc>
  </metadata>
  <trk>
    <name><![CDATA[Tracé actuel: 25 AVR 2013 10:25]]></name>
    <trkseg>
      <trkpt lat="43.4717" lon="-0.93066">
        <ele>52.53</ele>
        <time>2013-04-25T08:25:53Z</time>
      </trkpt>
      <trkpt lat="43.47163" lon="-0.93049">
        <ele>53.49</ele>
        <time>2013-04-25T08:26:13Z</time>
      </trkpt>
      <trkpt lat="43.47155" lon="-0.93036">
        <ele>53.01</ele>
        <time>2013-04-25T08:26:24Z</time>
      </trkpt>
      <trkpt lat="43.47149" lon="-0.93025">
        <ele>53.01</ele>
        <time>2013-04-25T08:26:34Z</time>
      </trkpt>
      <trkpt lat="43.47144" lon="-0.93012">
        <ele>53.01</ele>
        <time>2013-04-25T08:26:43Z</time>
      </trkpt>
      <trkpt lat="43.47137" lon="-0.93001">
        <ele>52.53</ele>
        <time>2013-04-25T08:26:52Z</time>
      </trkpt>
      <trkpt lat="43.47133" lon="-0.92994">
        <ele>52.05</ele>
        <time>2013-04-25T08:27:15Z</time>
      </trkpt>
      <trkpt lat="43.47129" lon="-0.92982">
        <ele>52.05</ele>
        <time>2013-04-25T08:27:31Z</time>
      </trkpt>
      <trkpt lat="43.47127" lon="-0.92967">
        <ele>51.57</ele>
        <time>2013-04-25T08:27:39Z</time>
      </trkpt>
      <trkpt lat="43.4713" lon="-0.92952">
        <ele>51.09</ele>
        <time>2013-04-25T08:27:46Z</time>
      </trkpt>
      <trkpt lat="43.47133" lon="-0.92939">
        <ele>51.09</ele>
        <time>2013-04-25T08:27:55Z</time>
      </trkpt>
      <trkpt lat="43.47137" lon="-0.92926">
        <ele>50.13</ele>
        <time>2013-04-25T08:28:03Z</time>
      </trkpt>
      <trkpt lat="43.47141" lon="-0.92914">
        <ele>49.16</ele>
        <time>2013-04-25T08:28:11Z</time>
      </trkpt>
      <trkpt lat="43.47144" lon="-0.92902">
        <ele>48.68</ele>
        <time>2013-04-25T08:28:18Z</time>
      </trkpt>
      <trkpt lat="43.47147" lon="-0.9289">
        <ele>47.24</ele>
        <time>2013-04-25T08:28:26Z</time>
      </trkpt>
      <trkpt lat="43.47151" lon="-0.92877">
        <ele>46.76</ele>
        <time>2013-04-25T08:28:36Z</time>
      </trkpt>
      <trkpt lat="43.47153" lon="-0.92864">
        <ele>45.32</ele>
        <time>2013-04-25T08:28:44Z</time>
      </trkpt>
      <trkpt lat="43.47158" lon="-0.92853">
        <ele>45.8</ele>
        <time>2013-04-25T08:28:52Z</time>
      </trkpt>
      <trkpt lat="43.47163" lon="-0.9284">
        <ele>45.32</ele>
        <time>2013-04-25T08:29:02Z</time>
      </trkpt>
      <trkpt lat="43.47169" lon="-0.9283">
        <ele>45.32</ele>
        <time>2013-04-25T08:29:10Z</time>
      </trkpt>
      <trkpt lat="43.4717" lon="-0.92815">
        <ele>45.32</ele>
        <time>2013-04-25T08:29:20Z</time>
      </trkpt>
      <trkpt lat="43.47172" lon="-0.92804">
        <ele>44.84</ele>
        <time>2013-04-25T08:29:31Z</time>
      </trkpt>
      <trkpt lat="43.47176" lon="-0.92791">
        <ele>44.84</ele>
        <time>2013-04-25T08:29:40Z</time>
      </trkpt>
      <trkpt lat="43.47181" lon="-0.92777">
        <ele>45.32</ele>
        <time>2013-04-25T08:29:48Z</time>
      </trkpt>
      <trkpt lat="43.47182" lon="-0.92765">
        <ele>44.84</ele>
        <time>2013-04-25T08:29:56Z</time>
      </trkpt>
      <trkpt lat="43.47181" lon="-0.92753">
        <ele>44.84</ele>
        <time>2013-04-25T08:30:04Z</time>
      </trkpt>
      <trkpt lat="43.4718" lon="-0.92741">
        <ele>44.84</ele>
        <time>2013-04-25T08:30:12Z</time>
      </trkpt>
      <trkpt lat="43.47179" lon="-0.92728">
        <ele>44.84</ele>
        <time>2013-04-25T08:30:20Z</time>
      </trkpt>
      <trkpt lat="43.47178" lon="-0.92716">
        <ele>44.36</ele>
        <time>2013-04-25T08:30:28Z</time>
      </trkpt>
      <trkpt lat="43.47175" lon="-0.92703">
        <ele>44.84</ele>
        <time>2013-04-25T08:30:36Z</time>
      </trkpt>
      <trkpt lat="43.47171" lon="-0.9269">
        <ele>44.84</ele>
        <time>2013-04-25T08:30:44Z</time>
      </trkpt>
      <trkpt lat="43.47166" lon="-0.92678">
        <ele>44.84</ele>
        <time>2013-04-25T08:30:54Z</time>
      </trkpt>
      <trkpt lat="43.47162" lon="-0.92666">
        <ele>44.84</ele>
        <time>2013-04-25T08:31:08Z</time>
      </trkpt>
      <trkpt lat="43.47155" lon="-0.92657">
        <ele>45.32</ele>
        <time>2013-04-25T08:31:22Z</time>
      </trkpt>
      <trkpt lat="43.47147" lon="-0.92648">
        <ele>46.28</ele>
        <time>2013-04-25T08:31:42Z</time>
      </trkpt>
      <trkpt lat="43.4715" lon="-0.92651">
        <ele>45.8</ele>
        <time>2013-04-25T08:33:20Z</time>
      </trkpt>
      <trkpt lat="43.4715" lon="-0.92654">
        <ele>45.8</ele>
        <time>2013-04-25T08:35:48Z</time>
      </trkpt>
      <trkpt lat="43.47148" lon="-0.92648">
        <ele>46.28</ele>
        <time>2013-04-25T08:37:18Z</time>
      </trkpt>
      <trkpt lat="43.47145" lon="-0.92641">
        <ele>46.28</ele>
        <time>2013-04-25T08:41:37Z</time>
      </trkpt>
      <trkpt lat="43.47141" lon="-0.92637">
        <ele>45.8</ele>
        <time>2013-04-25T08:45:04Z</time>
      </trkpt>
      <trkpt lat="43.47144" lon="-0.92633">
        <ele>45.32</ele>
        <time>2013-04-25T08:45:22Z</time>
      </trkpt>
      <trkpt lat="43.47152" lon="-0.92634">
        <ele>45.32</ele>
        <time>2013-04-25T08:45:33Z</time>
      </trkpt>
      <trkpt lat="43.47164" lon="-0.92629">
        <ele>45.32</ele>
        <time>2013-04-25T08:45:43Z</time>
      </trkpt>
      <trkpt lat="43.47172" lon="-0.92621">
        <ele>44.84</ele>
        <time>2013-04-25T08:45:52Z</time>
      </trkpt>
      <trkpt lat="43.4718" lon="-0.92613">
        <ele>44.84</ele>
        <time>2013-04-25T08:46:00Z</time>
      </trkpt>
      <trkpt lat="43.47178" lon="-0.92601">
        <ele>44.84</ele>
        <time>2013-04-25T08:46:12Z</time>
      </trkpt>
      <trkpt lat="43.47182" lon="-0.92591">
        <ele>45.32</ele>
        <time>2013-04-25T08:46:29Z</time>
      </trkpt>
      <trkpt lat="43.4719" lon="-0.92588">
        <ele>44.84</ele>
        <time>2013-04-25T08:46:39Z</time>
      </trkpt>
      <trkpt lat="43.47196" lon="-0.92596">
        <ele>44.84</ele>
        <time>2013-04-25T08:46:53Z</time>
      </trkpt>
      <trkpt lat="43.472" lon="-0.92584">
        <ele>44.84</ele>
        <time>2013-04-25T08:47:22Z</time>
      </trkpt>
      <trkpt lat="43.47208" lon="-0.92577">
        <ele>44.84</ele>
        <time>2013-04-25T08:47:56Z</time>
      </trkpt>
      <trkpt lat="43.47216" lon="-0.92568">
        <ele>44.84</ele>
        <time>2013-04-25T08:48:05Z</time>
      </trkpt>
      <trkpt lat="43.47221" lon="-0.92555">
        <ele>45.32</ele>
        <time>2013-04-25T08:48:13Z</time>
      </trkpt>
      <trkpt lat="43.47222" lon="-0.92547">
        <ele>45.32</ele>
        <time>2013-04-25T08:48:54Z</time>
      </trkpt>
      <trkpt lat="43.4721" lon="-0.92548">
        <ele>44.84</ele>
        <time>2013-04-25T08:49:02Z</time>
      </trkpt>
      <trkpt lat="43.472" lon="-0.92551">
        <ele>44.36</ele>
        <time>2013-04-25T08:49:11Z</time>
      </trkpt>
      <trkpt lat="43.47191" lon="-0.92552">
        <ele>44.84</ele>
        <time>2013-04-25T08:49:22Z</time>
      </trkpt>
      <trkpt lat="43.47185" lon="-0.92555">
        <ele>45.32</ele>
        <time>2013-04-25T08:49:55Z</time>
      </trkpt>
      <trkpt lat="43.47176" lon="-0.92558">
        <ele>45.32</ele>
        <time>2013-04-25T08:50:03Z</time>
      </trkpt>
      <trkpt lat="43.47166" lon="-0.92558">
        <ele>45.32</ele>
        <time>2013-04-25T08:50:12Z</time>
      </trkpt>
      <trkpt lat="43.47156" lon="-0.92559">
        <ele>45.32</ele>
        <time>2013-04-25T08:50:20Z</time>
      </trkpt>
      <trkpt lat="43.47149" lon="-0.92556">
        <ele>45.8</ele>
        <time>2013-04-25T08:51:01Z</time>
      </trkpt>
      <trkpt lat="43.47149" lon="-0.92542">
        <ele>45.32</ele>
        <time>2013-04-25T08:51:11Z</time>
      </trkpt>
      <trkpt lat="43.47154" lon="-0.92534">
        <ele>45.32</ele>
        <time>2013-04-25T08:51:30Z</time>
      </trkpt>
      <trkpt lat="43.47161" lon="-0.92533">
        <ele>45.8</ele>
        <time>2013-04-25T08:51:48Z</time>
      </trkpt>
      <trkpt lat="43.47164" lon="-0.92532">
        <ele>45.8</ele>
        <time>2013-04-25T08:52:16Z</time>
      </trkpt>
      <trkpt lat="43.4717" lon="-0.92521">
        <ele>45.8</ele>
        <time>2013-04-25T08:52:27Z</time>
      </trkpt>
      <trkpt lat="43.47172" lon="-0.9251">
        <ele>45.8</ele>
        <time>2013-04-25T08:52:41Z</time>
      </trkpt>
      <trkpt lat="43.47179" lon="-0.92506">
        <ele>44.84</ele>
        <time>2013-04-25T08:53:03Z</time>
      </trkpt>
      <trkpt lat="43.47187" lon="-0.92499">
        <ele>42.92</ele>
        <time>2013-04-25T08:53:58Z</time>
      </trkpt>
      <trkpt lat="43.47184" lon="-0.92504">
        <ele>43.4</ele>
        <time>2013-04-25T08:54:47Z</time>
      </trkpt>
      <trkpt lat="43.47186" lon="-0.92516">
        <ele>44.84</ele>
        <time>2013-04-25T08:55:22Z</time>
      </trkpt>
      <trkpt lat="43.4719" lon="-0.92524">
        <ele>44.84</ele>
        <time>2013-04-25T08:55:32Z</time>
      </trkpt>
      <trkpt lat="43.47182" lon="-0.92531">
        <ele>45.32</ele>
        <time>2013-04-25T08:56:02Z</time>
      </trkpt>
      <trkpt lat="43.47172" lon="-0.92532">
        <ele>45.32</ele>
        <time>2013-04-25T08:56:15Z</time>
      </trkpt>
      <trkpt lat="43.47164" lon="-0.92532">
        <ele>45.32</ele>
        <time>2013-04-25T08:57:07Z</time>
      </trkpt>
      <trkpt lat="43.47155" lon="-0.92534">
        <ele>45.32</ele>
        <time>2013-04-25T08:58:16Z</time>
      </trkpt>
      <trkpt lat="43.47146" lon="-0.92533">
        <ele>44.36</ele>
        <time>2013-04-25T08:58:32Z</time>
      </trkpt>
      <trkpt lat="43.47138" lon="-0.92528">
        <ele>44.36</ele>
        <time>2013-04-25T08:58:43Z</time>
      </trkpt>
      <trkpt lat="43.47135" lon="-0.92516">
        <ele>44.84</ele>
        <time>2013-04-25T08:58:58Z</time>
      </trkpt>
      <trkpt lat="43.47126" lon="-0.9251">
        <ele>44.36</ele>
        <time>2013-04-25T08:59:18Z</time>
      </trkpt>
      <trkpt lat="43.47123" lon="-0.92523">
        <ele>44.36</ele>
        <time>2013-04-25T08:59:39Z</time>
      </trkpt>
      <trkpt lat="43.4712" lon="-0.92529">
        <ele>44.36</ele>
        <time>2013-04-25T09:00:00Z</time>
      </trkpt>
      <trkpt lat="43.4711" lon="-0.92532">
        <ele>44.36</ele>
        <time>2013-04-25T09:00:11Z</time>
      </trkpt>
      <trkpt lat="43.47103" lon="-0.92534">
        <ele>43.88</ele>
        <time>2013-04-25T09:00:36Z</time>
      </trkpt>
      <trkpt lat="43.47098" lon="-0.92532">
        <ele>43.4</ele>
        <time>2013-04-25T09:01:06Z</time>
      </trkpt>
      <trkpt lat="43.47087" lon="-0.92525">
        <ele>43.4</ele>
        <time>2013-04-25T09:01:22Z</time>
      </trkpt>
      <trkpt lat="43.47083" lon="-0.92513">
        <ele>43.4</ele>
        <time>2013-04-25T09:01:46Z</time>
      </trkpt>
      <trkpt lat="43.47085" lon="-0.92504">
        <ele>43.4</ele>
        <time>2013-04-25T09:02:20Z</time>
      </trkpt>
      <trkpt lat="43.47084" lon="-0.92492">
        <ele>43.4</ele>
        <time>2013-04-25T09:02:40Z</time>
      </trkpt>
      <trkpt lat="43.4708" lon="-0.92492">
        <ele>42.92</ele>
        <time>2013-04-25T09:05:46Z</time>
      </trkpt>
      <trkpt lat="43.47077" lon="-0.92489">
        <ele>42.92</ele>
        <time>2013-04-25T09:06:04Z</time>
      </trkpt>
      <trkpt lat="43.47076" lon="-0.92476">
        <ele>42.92</ele>
        <time>2013-04-25T09:06:42Z</time>
      </trkpt>
      <trkpt lat="43.4707" lon="-0.92466">
        <ele>43.88</ele>
        <time>2013-04-25T09:06:52Z</time>
      </trkpt>
      <trkpt lat="43.47061" lon="-0.92465">
        <ele>43.88</ele>
        <time>2013-04-25T09:07:02Z</time>
      </trkpt>
      <trkpt lat="43.47051" lon="-0.92465">
        <ele>43.88</ele>
        <time>2013-04-25T09:07:41Z</time>
      </trkpt>
      <trkpt lat="43.47041" lon="-0.92471">
        <ele>43.88</ele>
        <time>2013-04-25T09:07:52Z</time>
      </trkpt>
      <trkpt lat="43.47033" lon="-0.92476">
        <ele>43.88</ele>
        <time>2013-04-25T09:08:10Z</time>
      </trkpt>
      <trkpt lat="43.47025" lon="-0.92478">
        <ele>43.4</ele>
        <time>2013-04-25T09:08:26Z</time>
      </trkpt>
      <trkpt lat="43.47022" lon="-0.92488">
        <ele>43.88</ele>
        <time>2013-04-25T09:08:35Z</time>
      </trkpt>
      <trkpt lat="43.4702" lon="-0.92502">
        <ele>43.4</ele>
        <time>2013-04-25T09:08:46Z</time>
      </trkpt>
      <trkpt lat="43.47016" lon="-0.92516">
        <ele>43.4</ele>
        <time>2013-04-25T09:08:57Z</time>
      </trkpt>
      <trkpt lat="43.47013" lon="-0.92528">
        <ele>43.4</ele>
        <time>2013-04-25T09:09:07Z</time>
      </trkpt>
      <trkpt lat="43.47016" lon="-0.92517">
        <ele>43.88</ele>
        <time>2013-04-25T09:09:18Z</time>
      </trkpt>
      <trkpt lat="43.47019" lon="-0.92503">
        <ele>43.4</ele>
        <time>2013-04-25T09:09:29Z</time>
      </trkpt>
      <trkpt lat="43.47016" lon="-0.9251">
        <ele>42.44</ele>
        <time>2013-04-25T09:13:06Z</time>
      </trkpt>
      <trkpt lat="43.47014" lon="-0.92523">
        <ele>42.44</ele>
        <time>2013-04-25T09:13:20Z</time>
      </trkpt>
      <trkpt lat="43.47009" lon="-0.92535">
        <ele>42.44</ele>
        <time>2013-04-25T09:13:31Z</time>
      </trkpt>
      <trkpt lat="43.46998" lon="-0.92536">
        <ele>42.44</ele>
        <time>2013-04-25T09:13:43Z</time>
      </trkpt>
      <trkpt lat="43.46988" lon="-0.92534">
        <ele>41.95</ele>
        <time>2013-04-25T09:13:54Z</time>
      </trkpt>
      <trkpt lat="43.46978" lon="-0.92531">
        <ele>41.47</ele>
        <time>2013-04-25T09:14:03Z</time>
      </trkpt>
      <trkpt lat="43.46969" lon="-0.92523">
        <ele>41.95</ele>
        <time>2013-04-25T09:14:15Z</time>
      </trkpt>
      <trkpt lat="43.4696" lon="-0.92515">
        <ele>41.95</ele>
        <time>2013-04-25T09:14:26Z</time>
      </trkpt>
      <trkpt lat="43.46955" lon="-0.92505">
        <ele>41.95</ele>
        <time>2013-04-25T09:14:37Z</time>
      </trkpt>
      <trkpt lat="43.46947" lon="-0.92501">
        <ele>42.44</ele>
        <time>2013-04-25T09:14:51Z</time>
      </trkpt>
      <trkpt lat="43.46939" lon="-0.92503">
        <ele>42.92</ele>
        <time>2013-04-25T09:15:06Z</time>
      </trkpt>
      <trkpt lat="43.46928" lon="-0.92505">
        <ele>41.95</ele>
        <time>2013-04-25T09:15:16Z</time>
      </trkpt>
      <trkpt lat="43.46919" lon="-0.92509">
        <ele>42.44</ele>
        <time>2013-04-25T09:15:24Z</time>
      </trkpt>
      <trkpt lat="43.4691" lon="-0.92512">
        <ele>41.95</ele>
        <time>2013-04-25T09:15:33Z</time>
      </trkpt>
      <trkpt lat="43.46901" lon="-0.92516">
        <ele>42.92</ele>
        <time>2013-04-25T09:15:43Z</time>
      </trkpt>
      <trkpt lat="43.46892" lon="-0.92521">
        <ele>41.95</ele>
        <time>2013-04-25T09:15:52Z</time>
      </trkpt>
      <trkpt lat="43.46883" lon="-0.92526">
        <ele>42.44</ele>
        <time>2013-04-25T09:16:02Z</time>
      </trkpt>
      <trkpt lat="43.46873" lon="-0.92529">
        <ele>42.92</ele>
        <time>2013-04-25T09:16:12Z</time>
      </trkpt>
      <trkpt lat="43.46863" lon="-0.92532">
        <ele>41.95</ele>
        <time>2013-04-25T09:16:22Z</time>
      </trkpt>
      <trkpt lat="43.46855" lon="-0.92536">
        <ele>41.47</ele>
        <time>2013-04-25T09:16:32Z</time>
      </trkpt>
      <trkpt lat="43.46844" lon="-0.9254">
        <ele>43.4</ele>
        <time>2013-04-25T09:16:42Z</time>
      </trkpt>
      <trkpt lat="43.46835" lon="-0.92543">
        <ele>43.4</ele>
        <time>2013-04-25T09:16:52Z</time>
      </trkpt>
      <trkpt lat="43.46825" lon="-0.92546">
        <ele>43.4</ele>
        <time>2013-04-25T09:17:03Z</time>
      </trkpt>
      <trkpt lat="43.46817" lon="-0.92548">
        <ele>44.36</ele>
        <time>2013-04-25T09:17:17Z</time>
      </trkpt>
      <trkpt lat="43.46808" lon="-0.92551">
        <ele>44.36</ele>
        <time>2013-04-25T09:17:28Z</time>
      </trkpt>
      <trkpt lat="43.46797" lon="-0.92555">
        <ele>44.36</ele>
        <time>2013-04-25T09:17:38Z</time>
      </trkpt>
      <trkpt lat="43.46786" lon="-0.92557">
        <ele>44.36</ele>
        <time>2013-04-25T09:17:48Z</time>
      </trkpt>
      <trkpt lat="43.46777" lon="-0.92561">
        <ele>44.36</ele>
        <time>2013-04-25T09:17:59Z</time>
      </trkpt>
      <trkpt lat="43.46771" lon="-0.92568">
        <ele>44.36</ele>
        <time>2013-04-25T09:18:27Z</time>
      </trkpt>
      <trkpt lat="43.46762" lon="-0.92571">
        <ele>44.36</ele>
        <time>2013-04-25T09:18:35Z</time>
      </trkpt>
      <trkpt lat="43.46752" lon="-0.92572">
        <ele>44.36</ele>
        <time>2013-04-25T09:18:43Z</time>
      </trkpt>
      <trkpt lat="43.46743" lon="-0.92574">
        <ele>44.84</ele>
        <time>2013-04-25T09:18:54Z</time>
      </trkpt>
      <trkpt lat="43.46733" lon="-0.92576">
        <ele>44.84</ele>
        <time>2013-04-25T09:19:03Z</time>
      </trkpt>
      <trkpt lat="43.46723" lon="-0.92577">
        <ele>44.84</ele>
        <time>2013-04-25T09:19:12Z</time>
      </trkpt>
      <trkpt lat="43.46714" lon="-0.92578">
        <ele>44.84</ele>
        <time>2013-04-25T09:19:20Z</time>
      </trkpt>
      <trkpt lat="43.46705" lon="-0.92579">
        <ele>44.84</ele>
        <time>2013-04-25T09:19:29Z</time>
      </trkpt>
      <trkpt lat="43.46695" lon="-0.92581">
        <ele>44.84</ele>
        <time>2013-04-25T09:19:38Z</time>
      </trkpt>
      <trkpt lat="43.46685" lon="-0.92579">
        <ele>45.32</ele>
        <time>2013-04-25T09:19:46Z</time>
      </trkpt>
      <trkpt lat="43.46676" lon="-0.92576">
        <ele>44.84</ele>
        <time>2013-04-25T09:19:55Z</time>
      </trkpt>
      <trkpt lat="43.46667" lon="-0.92574">
        <ele>45.32</ele>
        <time>2013-04-25T09:20:06Z</time>
      </trkpt>
      <trkpt lat="43.46656" lon="-0.92574">
        <ele>45.32</ele>
        <time>2013-04-25T09:20:17Z</time>
      </trkpt>
      <trkpt lat="43.46647" lon="-0.9258">
        <ele>45.32</ele>
        <time>2013-04-25T09:20:26Z</time>
      </trkpt>
      <trkpt lat="43.46639" lon="-0.92586">
        <ele>45.32</ele>
        <time>2013-04-25T09:20:35Z</time>
      </trkpt>
      <trkpt lat="43.46634" lon="-0.92597">
        <ele>45.32</ele>
        <time>2013-04-25T09:20:46Z</time>
      </trkpt>
      <trkpt lat="43.46626" lon="-0.92607">
        <ele>45.32</ele>
        <time>2013-04-25T09:20:56Z</time>
      </trkpt>
      <trkpt lat="43.46619" lon="-0.92614">
        <ele>44.84</ele>
        <time>2013-04-25T09:21:05Z</time>
      </trkpt>
      <trkpt lat="43.46611" lon="-0.92622">
        <ele>44.84</ele>
        <time>2013-04-25T09:21:13Z</time>
      </trkpt>
      <trkpt lat="43.46604" lon="-0.9263">
        <ele>44.36</ele>
        <time>2013-04-25T09:21:22Z</time>
      </trkpt>
      <trkpt lat="43.46597" lon="-0.92639">
        <ele>44.36</ele>
        <time>2013-04-25T09:21:31Z</time>
      </trkpt>
      <trkpt lat="43.4659" lon="-0.92647">
        <ele>43.88</ele>
        <time>2013-04-25T09:21:39Z</time>
      </trkpt>
      <trkpt lat="43.46583" lon="-0.92655">
        <ele>43.88</ele>
        <time>2013-04-25T09:21:48Z</time>
      </trkpt>
      <trkpt lat="43.46574" lon="-0.92659">
        <ele>43.88</ele>
        <time>2013-04-25T09:21:56Z</time>
      </trkpt>
      <trkpt lat="43.46566" lon="-0.92664">
        <ele>44.36</ele>
        <time>2013-04-25T09:22:05Z</time>
      </trkpt>
      <trkpt lat="43.46557" lon="-0.92669">
        <ele>43.88</ele>
        <time>2013-04-25T09:22:14Z</time>
      </trkpt>
      <trkpt lat="43.46549" lon="-0.92676">
        <ele>43.88</ele>
        <time>2013-04-25T09:22:23Z</time>
      </trkpt>
      <trkpt lat="43.46541" lon="-0.92682">
        <ele>43.88</ele>
        <time>2013-04-25T09:22:31Z</time>
      </trkpt>
      <trkpt lat="43.46534" lon="-0.9269">
        <ele>43.88</ele>
        <time>2013-04-25T09:22:39Z</time>
      </trkpt>
      <trkpt lat="43.46528" lon="-0.927">
        <ele>43.88</ele>
        <time>2013-04-25T09:22:47Z</time>
      </trkpt>
      <trkpt lat="43.46521" lon="-0.9271">
        <ele>43.88</ele>
        <time>2013-04-25T09:22:56Z</time>
      </trkpt>
      <trkpt lat="43.46515" lon="-0.92719">
        <ele>43.88</ele>
        <time>2013-04-25T09:23:04Z</time>
      </trkpt>
      <trkpt lat="43.46509" lon="-0.9273">
        <ele>44.36</ele>
        <time>2013-04-25T09:23:12Z</time>
      </trkpt>
      <trkpt lat="43.46502" lon="-0.92739">
        <ele>43.4</ele>
        <time>2013-04-25T09:23:20Z</time>
      </trkpt>
      <trkpt lat="43.46496" lon="-0.92748">
        <ele>43.88</ele>
        <time>2013-04-25T09:23:28Z</time>
      </trkpt>
      <trkpt lat="43.4649" lon="-0.92758">
        <ele>43.88</ele>
        <time>2013-04-25T09:23:36Z</time>
      </trkpt>
      <trkpt lat="43.46483" lon="-0.92767">
        <ele>43.88</ele>
        <time>2013-04-25T09:23:44Z</time>
      </trkpt>
      <trkpt lat="43.46476" lon="-0.92775">
        <ele>43.4</ele>
        <time>2013-04-25T09:23:52Z</time>
      </trkpt>
      <trkpt lat="43.46468" lon="-0.92781">
        <ele>43.4</ele>
        <time>2013-04-25T09:24:00Z</time>
      </trkpt>
      <trkpt lat="43.46461" lon="-0.92788">
        <ele>43.4</ele>
        <time>2013-04-25T09:24:08Z</time>
      </trkpt>
      <trkpt lat="43.46453" lon="-0.92795">
        <ele>43.4</ele>
        <time>2013-04-25T09:24:16Z</time>
      </trkpt>
      <trkpt lat="43.46445" lon="-0.92802">
        <ele>43.88</ele>
        <time>2013-04-25T09:24:24Z</time>
      </trkpt>
      <trkpt lat="43.46437" lon="-0.92811">
        <ele>43.88</ele>
        <time>2013-04-25T09:24:33Z</time>
      </trkpt>
      <trkpt lat="43.46429" lon="-0.92818">
        <ele>43.88</ele>
        <time>2013-04-25T09:24:42Z</time>
      </trkpt>
      <trkpt lat="43.46421" lon="-0.92823">
        <ele>44.36</ele>
        <time>2013-04-25T09:24:51Z</time>
      </trkpt>
      <trkpt lat="43.46413" lon="-0.92828">
        <ele>44.36</ele>
        <time>2013-04-25T09:25:00Z</time>
      </trkpt>
      <trkpt lat="43.46405" lon="-0.92835">
        <ele>44.84</ele>
        <time>2013-04-25T09:25:10Z</time>
      </trkpt>
      <trkpt lat="43.46397" lon="-0.92843">
        <ele>44.36</ele>
        <time>2013-04-25T09:25:19Z</time>
      </trkpt>
      <trkpt lat="43.46391" lon="-0.92853">
        <ele>44.36</ele>
        <time>2013-04-25T09:25:28Z</time>
      </trkpt>
      <trkpt lat="43.46384" lon="-0.92863">
        <ele>44.84</ele>
        <time>2013-04-25T09:25:37Z</time>
      </trkpt>
      <trkpt lat="43.46376" lon="-0.92871">
        <ele>45.32</ele>
        <time>2013-04-25T09:25:45Z</time>
      </trkpt>
      <trkpt lat="43.4637" lon="-0.92878">
        <ele>45.32</ele>
        <time>2013-04-25T09:25:53Z</time>
      </trkpt>
      <trkpt lat="43.46362" lon="-0.92886">
        <ele>45.8</ele>
        <time>2013-04-25T09:26:02Z</time>
      </trkpt>
      <trkpt lat="43.46354" lon="-0.92894">
        <ele>46.28</ele>
        <time>2013-04-25T09:26:11Z</time>
      </trkpt>
      <trkpt lat="43.46346" lon="-0.92902">
        <ele>46.76</ele>
        <time>2013-04-25T09:26:20Z</time>
      </trkpt>
      <trkpt lat="43.46336" lon="-0.92908">
        <ele>47.72</ele>
        <time>2013-04-25T09:26:30Z</time>
      </trkpt>
      <trkpt lat="43.46327" lon="-0.92913">
        <ele>47.72</ele>
        <time>2013-04-25T09:26:39Z</time>
      </trkpt>
      <trkpt lat="43.46316" lon="-0.92919">
        <ele>48.2</ele>
        <time>2013-04-25T09:26:50Z</time>
      </trkpt>
      <trkpt lat="43.46308" lon="-0.92926">
        <ele>49.65</ele>
        <time>2013-04-25T09:27:00Z</time>
      </trkpt>
      <trkpt lat="43.46301" lon="-0.92936">
        <ele>50.61</ele>
        <time>2013-04-25T09:27:11Z</time>
      </trkpt>
      <trkpt lat="43.46294" lon="-0.92947">
        <ele>52.05</ele>
        <time>2013-04-25T09:27:22Z</time>
      </trkpt>
      <trkpt lat="43.46287" lon="-0.92957">
        <ele>52.53</ele>
        <time>2013-04-25T09:27:32Z</time>
      </trkpt>
      <trkpt lat="43.46281" lon="-0.92967">
        <ele>53.01</ele>
        <time>2013-04-25T09:27:42Z</time>
      </trkpt>
      <trkpt lat="43.46274" lon="-0.92976">
        <ele>53.49</ele>
        <time>2013-04-25T09:27:51Z</time>
      </trkpt>
      <trkpt lat="43.46268" lon="-0.92986">
        <ele>54.45</ele>
        <time>2013-04-25T09:28:00Z</time>
      </trkpt>
      <trkpt lat="43.46265" lon="-0.92997">
        <ele>54.45</ele>
        <time>2013-04-25T09:28:09Z</time>
      </trkpt>
      <trkpt lat="43.46258" lon="-0.93005">
        <ele>54.93</ele>
        <time>2013-04-25T09:28:20Z</time>
      </trkpt>
      <trkpt lat="43.46252" lon="-0.93015">
        <ele>55.89</ele>
        <time>2013-04-25T09:28:31Z</time>
      </trkpt>
      <trkpt lat="43.46246" lon="-0.93025">
        <ele>57.34</ele>
        <time>2013-04-25T09:28:43Z</time>
      </trkpt>
      <trkpt lat="43.4624" lon="-0.93035">
        <ele>58.3</ele>
        <time>2013-04-25T09:28:55Z</time>
      </trkpt>
      <trkpt lat="43.46234" lon="-0.93044">
        <ele>59.74</ele>
        <time>2013-04-25T09:29:08Z</time>
      </trkpt>
      <trkpt lat="43.46229" lon="-0.93054">
        <ele>61.18</ele>
        <time>2013-04-25T09:29:21Z</time>
      </trkpt>
      <trkpt lat="43.46224" lon="-0.93066">
        <ele>62.14</ele>
        <time>2013-04-25T09:29:34Z</time>
      </trkpt>
      <trkpt lat="43.4622" lon="-0.93078">
        <ele>63.58</ele>
        <time>2013-04-25T09:29:47Z</time>
      </trkpt>
      <trkpt lat="43.46215" lon="-0.9309">
        <ele>65.51</ele>
        <time>2013-04-25T09:29:59Z</time>
      </trkpt>
      <trkpt lat="43.46212" lon="-0.93102">
        <ele>66.47</ele>
        <time>2013-04-25T09:30:11Z</time>
      </trkpt>
      <trkpt lat="43.4621" lon="-0.93115">
        <ele>67.91</ele>
        <time>2013-04-25T09:30:24Z</time>
      </trkpt>
      <trkpt lat="43.46208" lon="-0.93128">
        <ele>69.35</ele>
        <time>2013-04-25T09:30:36Z</time>
      </trkpt>
      <trkpt lat="43.46205" lon="-0.9314">
        <ele>70.31</ele>
        <time>2013-04-25T09:30:47Z</time>
      </trkpt>
      <trkpt lat="43.46205" lon="-0.93154">
        <ele>71.27</ele>
        <time>2013-04-25T09:30:59Z</time>
      </trkpt>
      <trkpt lat="43.46204" lon="-0.93168">
        <ele>72.24</ele>
        <time>2013-04-25T09:31:12Z</time>
      </trkpt>
      <trkpt lat="43.46201" lon="-0.9318">
        <ele>73.68</ele>
        <time>2013-04-25T09:31:40Z</time>
      </trkpt>
      <trkpt lat="43.46197" lon="-0.93193">
        <ele>74.64</ele>
        <time>2013-04-25T09:31:53Z</time>
      </trkpt>
      <trkpt lat="43.46193" lon="-0.93205">
        <ele>75.6</ele>
        <time>2013-04-25T09:32:06Z</time>
      </trkpt>
      <trkpt lat="43.46189" lon="-0.93217">
        <ele>76.56</ele>
        <time>2013-04-25T09:32:20Z</time>
      </trkpt>
      <trkpt lat="43.46184" lon="-0.93229">
        <ele>78.48</ele>
        <time>2013-04-25T09:32:33Z</time>
      </trkpt>
      <trkpt lat="43.46178" lon="-0.93239">
        <ele>79.45</ele>
        <time>2013-04-25T09:32:46Z</time>
      </trkpt>
      <trkpt lat="43.46172" lon="-0.93248">
        <ele>81.37</ele>
        <time>2013-04-25T09:33:00Z</time>
      </trkpt>
      <trkpt lat="43.46165" lon="-0.93257">
        <ele>82.33</ele>
        <time>2013-04-25T09:33:13Z</time>
      </trkpt>
      <trkpt lat="43.46158" lon="-0.93267">
        <ele>83.77</ele>
        <time>2013-04-25T09:33:25Z</time>
      </trkpt>
      <trkpt lat="43.46152" lon="-0.93276">
        <ele>84.73</ele>
        <time>2013-04-25T09:33:37Z</time>
      </trkpt>
      <trkpt lat="43.46145" lon="-0.93284">
        <ele>85.69</ele>
        <time>2013-04-25T09:33:49Z</time>
      </trkpt>
      <trkpt lat="43.46137" lon="-0.9329">
        <ele>87.14</ele>
        <time>2013-04-25T09:34:02Z</time>
      </trkpt>
      <trkpt lat="43.46129" lon="-0.93297">
        <ele>87.62</ele>
        <time>2013-04-25T09:34:14Z</time>
      </trkpt>
      <trkpt lat="43.46122" lon="-0.93305">
        <ele>88.1</ele>
        <time>2013-04-25T09:34:26Z</time>
      </trkpt>
      <trkpt lat="43.46113" lon="-0.9331">
        <ele>89.54</ele>
        <time>2013-04-25T09:34:38Z</time>
      </trkpt>
      <trkpt lat="43.46105" lon="-0.93317">
        <ele>89.54</ele>
        <time>2013-04-25T09:34:50Z</time>
      </trkpt>
      <trkpt lat="43.46096" lon="-0.93322">
        <ele>90.5</ele>
        <time>2013-04-25T09:35:01Z</time>
      </trkpt>
      <trkpt lat="43.46087" lon="-0.93327">
        <ele>90.98</ele>
        <time>2013-04-25T09:35:11Z</time>
      </trkpt>
      <trkpt lat="43.46078" lon="-0.93334">
        <ele>92.42</ele>
        <time>2013-04-25T09:35:22Z</time>
      </trkpt>
      <trkpt lat="43.4607" lon="-0.93341">
        <ele>92.9</ele>
        <time>2013-04-25T09:35:33Z</time>
      </trkpt>
      <trkpt lat="43.46063" lon="-0.93348">
        <ele>92.9</ele>
        <time>2013-04-25T09:35:44Z</time>
      </trkpt>
      <trkpt lat="43.46055" lon="-0.93356">
        <ele>93.87</ele>
        <time>2013-04-25T09:35:54Z</time>
      </trkpt>
      <trkpt lat="43.46049" lon="-0.93366">
        <ele>94.83</ele>
        <time>2013-04-25T09:36:05Z</time>
      </trkpt>
      <trkpt lat="43.46044" lon="-0.93377">
        <ele>95.31</ele>
        <time>2013-04-25T09:36:16Z</time>
      </trkpt>
      <trkpt lat="43.4604" lon="-0.93389">
        <ele>96.27</ele>
        <time>2013-04-25T09:36:27Z</time>
      </trkpt>
      <trkpt lat="43.46035" lon="-0.934">
        <ele>97.23</ele>
        <time>2013-04-25T09:36:38Z</time>
      </trkpt>
      <trkpt lat="43.4603" lon="-0.93412">
        <ele>98.19</ele>
        <time>2013-04-25T09:36:50Z</time>
      </trkpt>
      <trkpt lat="43.46025" lon="-0.93423">
        <ele>99.15</ele>
        <time>2013-04-25T09:37:01Z</time>
      </trkpt>
      <trkpt lat="43.46021" lon="-0.93436">
        <ele>99.63</ele>
        <time>2013-04-25T09:37:12Z</time>
      </trkpt>
      <trkpt lat="43.46018" lon="-0.93448">
        <ele>100.6</ele>
        <time>2013-04-25T09:37:23Z</time>
      </trkpt>
      <trkpt lat="43.46014" lon="-0.93461">
        <ele>101.56</ele>
        <time>2013-04-25T09:37:34Z</time>
      </trkpt>
      <trkpt lat="43.4601" lon="-0.93472">
        <ele>102.52</ele>
        <time>2013-04-25T09:37:44Z</time>
      </trkpt>
      <trkpt lat="43.46003" lon="-0.93481">
        <ele>103</ele>
        <time>2013-04-25T09:37:54Z</time>
      </trkpt>
      <trkpt lat="43.45996" lon="-0.93487">
        <ele>103.48</ele>
        <time>2013-04-25T09:38:04Z</time>
      </trkpt>
      <trkpt lat="43.45987" lon="-0.93493">
        <ele>104.44</ele>
        <time>2013-04-25T09:38:14Z</time>
      </trkpt>
      <trkpt lat="43.45978" lon="-0.93497">
        <ele>105.4</ele>
        <time>2013-04-25T09:38:25Z</time>
      </trkpt>
      <trkpt lat="43.45968" lon="-0.93501">
        <ele>106.84</ele>
        <time>2013-04-25T09:38:35Z</time>
      </trkpt>
      <trkpt lat="43.4596" lon="-0.93506">
        <ele>107.81</ele>
        <time>2013-04-25T09:38:46Z</time>
      </trkpt>
      <trkpt lat="43.45951" lon="-0.93511">
        <ele>108.29</ele>
        <time>2013-04-25T09:38:57Z</time>
      </trkpt>
      <trkpt lat="43.45942" lon="-0.93515">
        <ele>109.73</ele>
        <time>2013-04-25T09:39:08Z</time>
      </trkpt>
      <trkpt lat="43.45932" lon="-0.93519">
        <ele>110.21</ele>
        <time>2013-04-25T09:39:19Z</time>
      </trkpt>
      <trkpt lat="43.45924" lon="-0.93521">
        <ele>111.65</ele>
        <time>2013-04-25T09:39:30Z</time>
      </trkpt>
      <trkpt lat="43.45913" lon="-0.93523">
        <ele>111.65</ele>
        <time>2013-04-25T09:39:42Z</time>
      </trkpt>
      <trkpt lat="43.45903" lon="-0.93523">
        <ele>112.61</ele>
        <time>2013-04-25T09:39:53Z</time>
      </trkpt>
      <trkpt lat="43.45894" lon="-0.93526">
        <ele>113.57</ele>
        <time>2013-04-25T09:40:04Z</time>
      </trkpt>
      <trkpt lat="43.45884" lon="-0.93529">
        <ele>114.05</ele>
        <time>2013-04-25T09:40:16Z</time>
      </trkpt>
      <trkpt lat="43.45875" lon="-0.93532">
        <ele>115.5</ele>
        <time>2013-04-25T09:40:27Z</time>
      </trkpt>
      <trkpt lat="43.45866" lon="-0.93534">
        <ele>115.5</ele>
        <time>2013-04-25T09:40:37Z</time>
      </trkpt>
      <trkpt lat="43.45856" lon="-0.93536">
        <ele>116.46</ele>
        <time>2013-04-25T09:40:47Z</time>
      </trkpt>
      <trkpt lat="43.45846" lon="-0.93539">
        <ele>116.46</ele>
        <time>2013-04-25T09:40:58Z</time>
      </trkpt>
      <trkpt lat="43.45836" lon="-0.93541">
        <ele>116.94</ele>
        <time>2013-04-25T09:41:08Z</time>
      </trkpt>
      <trkpt lat="43.45825" lon="-0.93542">
        <ele>117.9</ele>
        <time>2013-04-25T09:41:18Z</time>
      </trkpt>
      <trkpt lat="43.45816" lon="-0.93545">
        <ele>118.86</ele>
        <time>2013-04-25T09:41:28Z</time>
      </trkpt>
      <trkpt lat="43.45807" lon="-0.93549">
        <ele>119.82</ele>
        <time>2013-04-25T09:41:39Z</time>
      </trkpt>
      <trkpt lat="43.45797" lon="-0.93551">
        <ele>120.78</ele>
        <time>2013-04-25T09:41:50Z</time>
      </trkpt>
      <trkpt lat="43.45788" lon="-0.93555">
        <ele>121.74</ele>
        <time>2013-04-25T09:42:02Z</time>
      </trkpt>
      <trkpt lat="43.45778" lon="-0.93558">
        <ele>123.19</ele>
        <time>2013-04-25T09:42:14Z</time>
      </trkpt>
      <trkpt lat="43.45769" lon="-0.93556">
        <ele>124.15</ele>
        <time>2013-04-25T09:42:26Z</time>
      </trkpt>
      <trkpt lat="43.45761" lon="-0.93549">
        <ele>125.59</ele>
        <time>2013-04-25T09:42:38Z</time>
      </trkpt>
      <trkpt lat="43.45754" lon="-0.9354">
        <ele>126.55</ele>
        <time>2013-04-25T09:42:51Z</time>
      </trkpt>
      <trkpt lat="43.45749" lon="-0.93533">
        <ele>127.03</ele>
        <time>2013-04-25T09:43:02Z</time>
      </trkpt>
      <trkpt lat="43.4574" lon="-0.93527">
        <ele>127.99</ele>
        <time>2013-04-25T09:43:14Z</time>
      </trkpt>
      <trkpt lat="43.45729" lon="-0.93525">
        <ele>128.47</ele>
        <time>2013-04-25T09:43:24Z</time>
      </trkpt>
      <trkpt lat="43.45718" lon="-0.93524">
        <ele>129.43</ele>
        <time>2013-04-25T09:43:35Z</time>
      </trkpt>
      <trkpt lat="43.45715" lon="-0.9353">
        <ele>129.43</ele>
        <time>2013-04-25T09:45:30Z</time>
      </trkpt>
      <trkpt lat="43.45707" lon="-0.93536">
        <ele>129.92</ele>
        <time>2013-04-25T09:45:41Z</time>
      </trkpt>
      <trkpt lat="43.45699" lon="-0.93542">
        <ele>130.88</ele>
        <time>2013-04-25T09:45:50Z</time>
      </trkpt>
      <trkpt lat="43.4569" lon="-0.93545">
        <ele>131.36</ele>
        <time>2013-04-25T09:46:00Z</time>
      </trkpt>
      <trkpt lat="43.45681" lon="-0.93547">
        <ele>133.28</ele>
        <time>2013-04-25T09:46:10Z</time>
      </trkpt>
      <trkpt lat="43.45672" lon="-0.93547">
        <ele>134.72</ele>
        <time>2013-04-25T09:46:21Z</time>
      </trkpt>
      <trkpt lat="43.45662" lon="-0.93546">
        <ele>136.16</ele>
        <time>2013-04-25T09:46:33Z</time>
      </trkpt>
      <trkpt lat="43.45653" lon="-0.93545">
        <ele>136.64</ele>
        <time>2013-04-25T09:46:43Z</time>
      </trkpt>
      <trkpt lat="43.45643" lon="-0.93547">
        <ele>136.64</ele>
        <time>2013-04-25T09:46:54Z</time>
      </trkpt>
      <trkpt lat="43.45634" lon="-0.93549">
        <ele>136.16</ele>
        <time>2013-04-25T09:47:03Z</time>
      </trkpt>
      <trkpt lat="43.45626" lon="-0.93555">
        <ele>135.68</ele>
        <time>2013-04-25T09:47:13Z</time>
      </trkpt>
      <trkpt lat="43.45618" lon="-0.93561">
        <ele>135.2</ele>
        <time>2013-04-25T09:47:23Z</time>
      </trkpt>
      <trkpt lat="43.4561" lon="-0.93571">
        <ele>134.72</ele>
        <time>2013-04-25T09:47:33Z</time>
      </trkpt>
      <trkpt lat="43.45604" lon="-0.93579">
        <ele>133.76</ele>
        <time>2013-04-25T09:47:42Z</time>
      </trkpt>
      <trkpt lat="43.45597" lon="-0.93588">
        <ele>133.76</ele>
        <time>2013-04-25T09:47:51Z</time>
      </trkpt>
      <trkpt lat="43.45591" lon="-0.93598">
        <ele>132.8</ele>
        <time>2013-04-25T09:48:00Z</time>
      </trkpt>
      <trkpt lat="43.45587" lon="-0.93609">
        <ele>133.28</ele>
        <time>2013-04-25T09:48:10Z</time>
      </trkpt>
      <trkpt lat="43.45591" lon="-0.93621">
        <ele>133.76</ele>
        <time>2013-04-25T09:48:20Z</time>
      </trkpt>
      <trkpt lat="43.45596" lon="-0.93632">
        <ele>134.24</ele>
        <time>2013-04-25T09:48:31Z</time>
      </trkpt>
      <trkpt lat="43.45602" lon="-0.93644">
        <ele>136.16</ele>
        <time>2013-04-25T09:48:42Z</time>
      </trkpt>
      <trkpt lat="43.45609" lon="-0.93654">
        <ele>137.61</ele>
        <time>2013-04-25T09:48:54Z</time>
      </trkpt>
      <trkpt lat="43.45615" lon="-0.93664">
        <ele>138.57</ele>
        <time>2013-04-25T09:49:07Z</time>
      </trkpt>
      <trkpt lat="43.45623" lon="-0.93672">
        <ele>140.49</ele>
        <time>2013-04-25T09:49:19Z</time>
      </trkpt>
      <trkpt lat="43.45631" lon="-0.93681">
        <ele>141.45</ele>
        <time>2013-04-25T09:49:31Z</time>
      </trkpt>
      <trkpt lat="43.45639" lon="-0.93688">
        <ele>141.93</ele>
        <time>2013-04-25T09:49:42Z</time>
      </trkpt>
      <trkpt lat="43.45644" lon="-0.93699">
        <ele>140.97</ele>
        <time>2013-04-25T09:49:52Z</time>
      </trkpt>
      <trkpt lat="43.45649" lon="-0.93711">
        <ele>141.45</ele>
        <time>2013-04-25T09:50:02Z</time>
      </trkpt>
      <trkpt lat="43.45653" lon="-0.93723">
        <ele>140.97</ele>
        <time>2013-04-25T09:50:12Z</time>
      </trkpt>
      <trkpt lat="43.45658" lon="-0.93735">
        <ele>140.49</ele>
        <time>2013-04-25T09:50:24Z</time>
      </trkpt>
      <trkpt lat="43.45662" lon="-0.93747">
        <ele>139.53</ele>
        <time>2013-04-25T09:50:34Z</time>
      </trkpt>
      <trkpt lat="43.45665" lon="-0.93759">
        <ele>139.53</ele>
        <time>2013-04-25T09:50:45Z</time>
      </trkpt>
      <trkpt lat="43.4567" lon="-0.93768">
        <ele>139.05</ele>
        <time>2013-04-25T09:50:59Z</time>
      </trkpt>
      <trkpt lat="43.45677" lon="-0.93777">
        <ele>139.05</ele>
        <time>2013-04-25T09:51:41Z</time>
      </trkpt>
      <trkpt lat="43.45687" lon="-0.93786">
        <ele>139.05</ele>
        <time>2013-04-25T09:51:51Z</time>
      </trkpt>
      <trkpt lat="43.45696" lon="-0.93793">
        <ele>139.05</ele>
        <time>2013-04-25T09:52:01Z</time>
      </trkpt>
      <trkpt lat="43.45705" lon="-0.93799">
        <ele>138.09</ele>
        <time>2013-04-25T09:52:11Z</time>
      </trkpt>
      <trkpt lat="43.45715" lon="-0.93804">
        <ele>138.09</ele>
        <time>2013-04-25T09:52:22Z</time>
      </trkpt>
      <trkpt lat="43.45723" lon="-0.9381">
        <ele>137.61</ele>
        <time>2013-04-25T09:52:32Z</time>
      </trkpt>
      <trkpt lat="43.45731" lon="-0.93818">
        <ele>137.13</ele>
        <time>2013-04-25T09:52:42Z</time>
      </trkpt>
      <trkpt lat="43.45739" lon="-0.93825">
        <ele>137.13</ele>
        <time>2013-04-25T09:52:52Z</time>
      </trkpt>
      <trkpt lat="43.45746" lon="-0.93832">
        <ele>136.16</ele>
        <time>2013-04-25T09:53:02Z</time>
      </trkpt>
      <trkpt lat="43.45754" lon="-0.93839">
        <ele>135.68</ele>
        <time>2013-04-25T09:53:12Z</time>
      </trkpt>
      <trkpt lat="43.45762" lon="-0.93843">
        <ele>134.24</ele>
        <time>2013-04-25T09:53:42Z</time>
      </trkpt>
      <trkpt lat="43.45768" lon="-0.93853">
        <ele>134.24</ele>
        <time>2013-04-25T09:53:50Z</time>
      </trkpt>
      <trkpt lat="43.45769" lon="-0.93865">
        <ele>133.28</ele>
        <time>2013-04-25T09:54:00Z</time>
      </trkpt>
      <trkpt lat="43.45772" lon="-0.93876">
        <ele>131.84</ele>
        <time>2013-04-25T09:54:26Z</time>
      </trkpt>
      <trkpt lat="43.4578" lon="-0.93883">
        <ele>130.88</ele>
        <time>2013-04-25T09:54:43Z</time>
      </trkpt>
      <trkpt lat="43.45789" lon="-0.9389">
        <ele>130.4</ele>
        <time>2013-04-25T09:54:53Z</time>
      </trkpt>
      <trkpt lat="43.45798" lon="-0.93896">
        <ele>129.92</ele>
        <time>2013-04-25T09:55:03Z</time>
      </trkpt>
      <trkpt lat="43.45807" lon="-0.93902">
        <ele>128.95</ele>
        <time>2013-04-25T09:55:13Z</time>
      </trkpt>
      <trkpt lat="43.45815" lon="-0.93907">
        <ele>128.95</ele>
        <time>2013-04-25T09:55:23Z</time>
      </trkpt>
      <trkpt lat="43.45824" lon="-0.93914">
        <ele>129.43</ele>
        <time>2013-04-25T09:55:33Z</time>
      </trkpt>
      <trkpt lat="43.45829" lon="-0.93922">
        <ele>128.47</ele>
        <time>2013-04-25T09:56:02Z</time>
      </trkpt>
      <trkpt lat="43.45831" lon="-0.93934">
        <ele>127.03</ele>
        <time>2013-04-25T09:56:15Z</time>
      </trkpt>
      <trkpt lat="43.45831" lon="-0.93948">
        <ele>127.03</ele>
        <time>2013-04-25T09:56:26Z</time>
      </trkpt>
      <trkpt lat="43.45832" lon="-0.93962">
        <ele>126.07</ele>
        <time>2013-04-25T09:56:35Z</time>
      </trkpt>
      <trkpt lat="43.45834" lon="-0.93973">
        <ele>126.55</ele>
        <time>2013-04-25T09:56:47Z</time>
      </trkpt>
      <trkpt lat="43.45837" lon="-0.93986">
        <ele>126.07</ele>
        <time>2013-04-25T09:56:57Z</time>
      </trkpt>
      <trkpt lat="43.4584" lon="-0.93999">
        <ele>126.07</ele>
        <time>2013-04-25T09:57:07Z</time>
      </trkpt>
      <trkpt lat="43.45844" lon="-0.94011">
        <ele>126.07</ele>
        <time>2013-04-25T09:57:17Z</time>
      </trkpt>
      <trkpt lat="43.45851" lon="-0.94022">
        <ele>126.07</ele>
        <time>2013-04-25T09:57:27Z</time>
      </trkpt>
      <trkpt lat="43.45857" lon="-0.94034">
        <ele>126.55</ele>
        <time>2013-04-25T09:57:38Z</time>
      </trkpt>
      <trkpt lat="43.45861" lon="-0.94047">
        <ele>126.55</ele>
        <time>2013-04-25T09:57:49Z</time>
      </trkpt>
      <trkpt lat="43.45865" lon="-0.94059">
        <ele>126.07</ele>
        <time>2013-04-25T09:57:59Z</time>
      </trkpt>
      <trkpt lat="43.45867" lon="-0.94073">
        <ele>126.07</ele>
        <time>2013-04-25T09:58:11Z</time>
      </trkpt>
      <trkpt lat="43.45871" lon="-0.94085">
        <ele>126.07</ele>
        <time>2013-04-25T09:58:24Z</time>
      </trkpt>
      <trkpt lat="43.45876" lon="-0.94099">
        <ele>127.51</ele>
        <time>2013-04-25T09:58:37Z</time>
      </trkpt>
      <trkpt lat="43.45879" lon="-0.94111">
        <ele>127.99</ele>
        <time>2013-04-25T09:58:48Z</time>
      </trkpt>
      <trkpt lat="43.45886" lon="-0.94124">
        <ele>128.95</ele>
        <time>2013-04-25T09:59:01Z</time>
      </trkpt>
      <trkpt lat="43.45894" lon="-0.94135">
        <ele>128.95</ele>
        <time>2013-04-25T09:59:13Z</time>
      </trkpt>
      <trkpt lat="43.45901" lon="-0.94146">
        <ele>128.47</ele>
        <time>2013-04-25T09:59:25Z</time>
      </trkpt>
      <trkpt lat="43.45908" lon="-0.94154">
        <ele>128.47</ele>
        <time>2013-04-25T09:59:39Z</time>
      </trkpt>
      <trkpt lat="43.45918" lon="-0.94163">
        <ele>128.47</ele>
        <time>2013-04-25T09:59:52Z</time>
      </trkpt>
      <trkpt lat="43.45927" lon="-0.94172">
        <ele>128.47</ele>
        <time>2013-04-25T10:00:04Z</time>
      </trkpt>
      <trkpt lat="43.45937" lon="-0.94182">
        <ele>127.99</ele>
        <time>2013-04-25T10:00:15Z</time>
      </trkpt>
      <trkpt lat="43.45945" lon="-0.94192">
        <ele>127.99</ele>
        <time>2013-04-25T10:00:26Z</time>
      </trkpt>
      <trkpt lat="43.45954" lon="-0.942">
        <ele>127.99</ele>
        <time>2013-04-25T10:00:37Z</time>
      </trkpt>
      <trkpt lat="43.45962" lon="-0.94209">
        <ele>127.51</ele>
        <time>2013-04-25T10:00:47Z</time>
      </trkpt>
      <trkpt lat="43.4597" lon="-0.94217">
        <ele>127.51</ele>
        <time>2013-04-25T10:00:57Z</time>
      </trkpt>
      <trkpt lat="43.45976" lon="-0.94228">
        <ele>127.03</ele>
        <time>2013-04-25T10:01:09Z</time>
      </trkpt>
      <trkpt lat="43.45982" lon="-0.94239">
        <ele>125.59</ele>
        <time>2013-04-25T10:01:47Z</time>
      </trkpt>
      <trkpt lat="43.45988" lon="-0.94256">
        <ele>124.63</ele>
        <time>2013-04-25T10:01:58Z</time>
      </trkpt>
      <trkpt lat="43.45994" lon="-0.94269">
        <ele>123.19</ele>
        <time>2013-04-25T10:02:09Z</time>
      </trkpt>
      <trkpt lat="43.45997" lon="-0.94281">
        <ele>121.26</ele>
        <time>2013-04-25T10:02:25Z</time>
      </trkpt>
      <trkpt lat="43.45998" lon="-0.94293">
        <ele>120.3</ele>
        <time>2013-04-25T10:02:40Z</time>
      </trkpt>
      <trkpt lat="43.45997" lon="-0.94308">
        <ele>118.38</ele>
        <time>2013-04-25T10:02:59Z</time>
      </trkpt>
      <trkpt lat="43.45991" lon="-0.94325">
        <ele>117.9</ele>
        <time>2013-04-25T10:03:13Z</time>
      </trkpt>
      <trkpt lat="43.45984" lon="-0.94337">
        <ele>116.94</ele>
        <time>2013-04-25T10:03:25Z</time>
      </trkpt>
      <trkpt lat="43.45981" lon="-0.9435">
        <ele>115.98</ele>
        <time>2013-04-25T10:03:37Z</time>
      </trkpt>
      <trkpt lat="43.45975" lon="-0.94364">
        <ele>115.98</ele>
        <time>2013-04-25T10:03:48Z</time>
      </trkpt>
      <trkpt lat="43.45975" lon="-0.94381">
        <ele>115.5</ele>
        <time>2013-04-25T10:04:00Z</time>
      </trkpt>
      <trkpt lat="43.45977" lon="-0.94397">
        <ele>115.5</ele>
        <time>2013-04-25T10:04:11Z</time>
      </trkpt>
      <trkpt lat="43.4598" lon="-0.94411">
        <ele>115.98</ele>
        <time>2013-04-25T10:04:22Z</time>
      </trkpt>
      <trkpt lat="43.45985" lon="-0.94424">
        <ele>116.46</ele>
        <time>2013-04-25T10:04:34Z</time>
      </trkpt>
      <trkpt lat="43.4599" lon="-0.94438">
        <ele>116.94</ele>
        <time>2013-04-25T10:04:48Z</time>
      </trkpt>
      <trkpt lat="43.45994" lon="-0.94451">
        <ele>117.9</ele>
        <time>2013-04-25T10:05:00Z</time>
      </trkpt>
      <trkpt lat="43.45998" lon="-0.94465">
        <ele>118.38</ele>
        <time>2013-04-25T10:05:13Z</time>
      </trkpt>
      <trkpt lat="43.46006" lon="-0.9448">
        <ele>117.9</ele>
        <time>2013-04-25T10:07:50Z</time>
      </trkpt>
      <trkpt lat="43.46012" lon="-0.94494">
        <ele>118.38</ele>
        <time>2013-04-25T10:08:02Z</time>
      </trkpt>
      <trkpt lat="43.46019" lon="-0.94504">
        <ele>117.42</ele>
        <time>2013-04-25T10:08:13Z</time>
      </trkpt>
      <trkpt lat="43.46027" lon="-0.94515">
        <ele>116.94</ele>
        <time>2013-04-25T10:08:27Z</time>
      </trkpt>
      <trkpt lat="43.46033" lon="-0.94527">
        <ele>116.94</ele>
        <time>2013-04-25T10:08:39Z</time>
      </trkpt>
      <trkpt lat="43.46041" lon="-0.94538">
        <ele>115.98</ele>
        <time>2013-04-25T10:08:52Z</time>
      </trkpt>
      <trkpt lat="43.46048" lon="-0.94549">
        <ele>115.5</ele>
        <time>2013-04-25T10:09:03Z</time>
      </trkpt>
      <trkpt lat="43.46056" lon="-0.9456">
        <ele>115.5</ele>
        <time>2013-04-25T10:09:13Z</time>
      </trkpt>
      <trkpt lat="43.46061" lon="-0.94575">
        <ele>115.5</ele>
        <time>2013-04-25T10:09:24Z</time>
      </trkpt>
      <trkpt lat="43.46064" lon="-0.94589">
        <ele>115.5</ele>
        <time>2013-04-25T10:09:43Z</time>
      </trkpt>
      <trkpt lat="43.46069" lon="-0.94604">
        <ele>115.5</ele>
        <time>2013-04-25T10:09:52Z</time>
      </trkpt>
      <trkpt lat="43.46074" lon="-0.94618">
        <ele>115.98</ele>
        <time>2013-04-25T10:10:02Z</time>
      </trkpt>
      <trkpt lat="43.46077" lon="-0.94632">
        <ele>116.46</ele>
        <time>2013-04-25T10:10:14Z</time>
      </trkpt>
      <trkpt lat="43.4608" lon="-0.94648">
        <ele>116.94</ele>
        <time>2013-04-25T10:10:28Z</time>
      </trkpt>
      <trkpt lat="43.46084" lon="-0.94663">
        <ele>118.38</ele>
        <time>2013-04-25T10:10:42Z</time>
      </trkpt>
      <trkpt lat="43.46089" lon="-0.94678">
        <ele>118.86</ele>
        <time>2013-04-25T10:10:55Z</time>
      </trkpt>
      <trkpt lat="43.46091" lon="-0.94691">
        <ele>120.3</ele>
        <time>2013-04-25T10:11:07Z</time>
      </trkpt>
      <trkpt lat="43.4609" lon="-0.94705">
        <ele>121.26</ele>
        <time>2013-04-25T10:11:20Z</time>
      </trkpt>
      <trkpt lat="43.46092" lon="-0.94721">
        <ele>121.26</ele>
        <time>2013-04-25T10:11:32Z</time>
      </trkpt>
      <trkpt lat="43.46093" lon="-0.94736">
        <ele>120.3</ele>
        <time>2013-04-25T10:11:42Z</time>
      </trkpt>
      <trkpt lat="43.46096" lon="-0.9475">
        <ele>120.3</ele>
        <time>2013-04-25T10:11:52Z</time>
      </trkpt>
      <trkpt lat="43.461" lon="-0.94765">
        <ele>119.82</ele>
        <time>2013-04-25T10:12:04Z</time>
      </trkpt>
      <trkpt lat="43.46104" lon="-0.94778">
        <ele>119.82</ele>
        <time>2013-04-25T10:12:14Z</time>
      </trkpt>
      <trkpt lat="43.46108" lon="-0.94791">
        <ele>119.34</ele>
        <time>2013-04-25T10:12:25Z</time>
      </trkpt>
      <trkpt lat="43.46111" lon="-0.94805">
        <ele>118.86</ele>
        <time>2013-04-25T10:12:35Z</time>
      </trkpt>
      <trkpt lat="43.46112" lon="-0.94817">
        <ele>117.9</ele>
        <time>2013-04-25T10:12:49Z</time>
      </trkpt>
      <trkpt lat="43.46112" lon="-0.94829">
        <ele>116.94</ele>
        <time>2013-04-25T10:13:11Z</time>
      </trkpt>
      <trkpt lat="43.46115" lon="-0.94845">
        <ele>115.98</ele>
        <time>2013-04-25T10:13:26Z</time>
      </trkpt>
      <trkpt lat="43.46117" lon="-0.94858">
        <ele>115.01</ele>
        <time>2013-04-25T10:13:39Z</time>
      </trkpt>
      <trkpt lat="43.46119" lon="-0.94871">
        <ele>114.05</ele>
        <time>2013-04-25T10:13:51Z</time>
      </trkpt>
      <trkpt lat="43.46122" lon="-0.94885">
        <ele>113.57</ele>
        <time>2013-04-25T10:14:02Z</time>
      </trkpt>
      <trkpt lat="43.46124" lon="-0.94897">
        <ele>112.13</ele>
        <time>2013-04-25T10:14:12Z</time>
      </trkpt>
      <trkpt lat="43.46125" lon="-0.94911">
        <ele>111.17</ele>
        <time>2013-04-25T10:14:26Z</time>
      </trkpt>
      <trkpt lat="43.4613" lon="-0.94922">
        <ele>111.65</ele>
        <time>2013-04-25T10:15:50Z</time>
      </trkpt>
      <trkpt lat="43.46132" lon="-0.94937">
        <ele>111.17</ele>
        <time>2013-04-25T10:16:04Z</time>
      </trkpt>
      <trkpt lat="43.46131" lon="-0.94948">
        <ele>111.17</ele>
        <time>2013-04-25T10:16:18Z</time>
      </trkpt>
      <trkpt lat="43.46132" lon="-0.94961">
        <ele>111.65</ele>
        <time>2013-04-25T10:16:32Z</time>
      </trkpt>
      <trkpt lat="43.46135" lon="-0.94975">
        <ele>111.65</ele>
        <time>2013-04-25T10:16:44Z</time>
      </trkpt>
      <trkpt lat="43.46137" lon="-0.94988">
        <ele>112.61</ele>
        <time>2013-04-25T10:16:55Z</time>
      </trkpt>
      <trkpt lat="43.4614" lon="-0.95">
        <ele>114.53</ele>
        <time>2013-04-25T10:17:10Z</time>
      </trkpt>
      <trkpt lat="43.46141" lon="-0.95013">
        <ele>115.98</ele>
        <time>2013-04-25T10:17:25Z</time>
      </trkpt>
      <trkpt lat="43.46139" lon="-0.95023">
        <ele>116.94</ele>
        <time>2013-04-25T10:17:38Z</time>
      </trkpt>
      <trkpt lat="43.4614" lon="-0.95024">
        <ele>116.46</ele>
        <time>2013-04-25T10:29:46Z</time>
      </trkpt>
      <trkpt lat="43.46142" lon="-0.95025">
        <ele>115.5</ele>
        <time>2013-04-25T10:44:55Z</time>
      </trkpt>
      <trkpt lat="43.46141" lon="-0.95023">
        <ele>114.05</ele>
        <time>2013-04-25T10:58:14Z</time>
      </trkpt>
      <trkpt lat="43.46142" lon="-0.95023">
        <ele>113.09</ele>
        <time>2013-04-25T11:16:58Z</time>
      </trkpt>
      <trkpt lat="43.46143" lon="-0.95022">
        <ele>113.57</ele>
        <time>2013-04-25T11:22:50Z</time>
      </trkpt>
      <trkpt lat="43.46144" lon="-0.95012">
        <ele>112.61</ele>
        <time>2013-04-25T11:23:21Z</time>
      </trkpt>
      <trkpt lat="43.46145" lon="-0.94997">
        <ele>111.17</ele>
        <time>2013-04-25T11:23:32Z</time>
      </trkpt>
      <trkpt lat="43.46142" lon="-0.94982">
        <ele>109.73</ele>
        <time>2013-04-25T11:23:45Z</time>
      </trkpt>
      <trkpt lat="43.46137" lon="-0.9497">
        <ele>109.25</ele>
        <time>2013-04-25T11:23:57Z</time>
      </trkpt>
      <trkpt lat="43.46128" lon="-0.94963">
        <ele>108.29</ele>
        <time>2013-04-25T11:24:07Z</time>
      </trkpt>
      <trkpt lat="43.46123" lon="-0.9496">
        <ele>106.84</ele>
        <time>2013-04-25T11:24:24Z</time>
      </trkpt>
      <trkpt lat="43.46114" lon="-0.94962">
        <ele>105.4</ele>
        <time>2013-04-25T11:24:44Z</time>
      </trkpt>
      <trkpt lat="43.46106" lon="-0.94977">
        <ele>105.4</ele>
        <time>2013-04-25T11:25:38Z</time>
      </trkpt>
      <trkpt lat="43.46099" lon="-0.94987">
        <ele>104.92</ele>
        <time>2013-04-25T11:25:57Z</time>
      </trkpt>
      <trkpt lat="43.4609" lon="-0.95">
        <ele>105.4</ele>
        <time>2013-04-25T11:26:08Z</time>
      </trkpt>
      <trkpt lat="43.46081" lon="-0.95011">
        <ele>104.92</ele>
        <time>2013-04-25T11:26:21Z</time>
      </trkpt>
      <trkpt lat="43.46072" lon="-0.95019">
        <ele>103.96</ele>
        <time>2013-04-25T11:26:32Z</time>
      </trkpt>
      <trkpt lat="43.46063" lon="-0.95029">
        <ele>103.48</ele>
        <time>2013-04-25T11:26:42Z</time>
      </trkpt>
      <trkpt lat="43.46054" lon="-0.95039">
        <ele>102.04</ele>
        <time>2013-04-25T11:26:55Z</time>
      </trkpt>
      <trkpt lat="43.46044" lon="-0.95043">
        <ele>101.08</ele>
        <time>2013-04-25T11:27:06Z</time>
      </trkpt>
      <trkpt lat="43.46035" lon="-0.95049">
        <ele>99.63</ele>
        <time>2013-04-25T11:27:18Z</time>
      </trkpt>
      <trkpt lat="43.46024" lon="-0.95053">
        <ele>98.19</ele>
        <time>2013-04-25T11:27:30Z</time>
      </trkpt>
      <trkpt lat="43.46011" lon="-0.95056">
        <ele>95.31</ele>
        <time>2013-04-25T11:27:43Z</time>
      </trkpt>
      <trkpt lat="43.46002" lon="-0.95063">
        <ele>93.87</ele>
        <time>2013-04-25T11:28:02Z</time>
      </trkpt>
      <trkpt lat="43.45991" lon="-0.95063">
        <ele>92.42</ele>
        <time>2013-04-25T11:28:15Z</time>
      </trkpt>
      <trkpt lat="43.45981" lon="-0.95065">
        <ele>90.5</ele>
        <time>2013-04-25T11:28:31Z</time>
      </trkpt>
      <trkpt lat="43.4597" lon="-0.9507">
        <ele>88.58</ele>
        <time>2013-04-25T11:28:45Z</time>
      </trkpt>
      <trkpt lat="43.45956" lon="-0.95068">
        <ele>86.66</ele>
        <time>2013-04-25T11:29:00Z</time>
      </trkpt>
      <trkpt lat="43.45956" lon="-0.95056">
        <ele>83.77</ele>
        <time>2013-04-25T11:29:14Z</time>
      </trkpt>
      <trkpt lat="43.4596" lon="-0.95042">
        <ele>81.37</ele>
        <time>2013-04-25T11:29:28Z</time>
      </trkpt>
      <trkpt lat="43.45956" lon="-0.95029">
        <ele>78.97</ele>
        <time>2013-04-25T11:29:42Z</time>
      </trkpt>
      <trkpt lat="43.45938" lon="-0.95024">
        <ele>76.56</ele>
        <time>2013-04-25T11:29:54Z</time>
      </trkpt>
      <trkpt lat="43.45924" lon="-0.95023">
        <ele>75.12</ele>
        <time>2013-04-25T11:30:05Z</time>
      </trkpt>
      <trkpt lat="43.45913" lon="-0.95027">
        <ele>74.16</ele>
        <time>2013-04-25T11:30:16Z</time>
      </trkpt>
      <trkpt lat="43.459" lon="-0.95033">
        <ele>72.72</ele>
        <time>2013-04-25T11:30:29Z</time>
      </trkpt>
      <trkpt lat="43.45892" lon="-0.95041">
        <ele>71.27</ele>
        <time>2013-04-25T11:30:40Z</time>
      </trkpt>
      <trkpt lat="43.45882" lon="-0.95045">
        <ele>69.83</ele>
        <time>2013-04-25T11:30:50Z</time>
      </trkpt>
      <trkpt lat="43.45874" lon="-0.95043">
        <ele>69.35</ele>
        <time>2013-04-25T11:31:05Z</time>
      </trkpt>
      <trkpt lat="43.45866" lon="-0.95048">
        <ele>69.35</ele>
        <time>2013-04-25T11:32:51Z</time>
      </trkpt>
      <trkpt lat="43.45858" lon="-0.95055">
        <ele>68.39</ele>
        <time>2013-04-25T11:33:07Z</time>
      </trkpt>
      <trkpt lat="43.45849" lon="-0.9506">
        <ele>67.43</ele>
        <time>2013-04-25T11:33:20Z</time>
      </trkpt>
      <trkpt lat="43.4584" lon="-0.95064">
        <ele>68.39</ele>
        <time>2013-04-25T11:33:43Z</time>
      </trkpt>
      <trkpt lat="43.45839" lon="-0.9507">
        <ele>69.35</ele>
        <time>2013-04-25T11:34:23Z</time>
      </trkpt>
      <trkpt lat="43.45839" lon="-0.9508">
        <ele>68.87</ele>
        <time>2013-04-25T11:35:13Z</time>
      </trkpt>
      <trkpt lat="43.45824" lon="-0.95102">
        <ele>68.87</ele>
        <time>2013-04-25T11:35:53Z</time>
      </trkpt>
      <trkpt lat="43.45822" lon="-0.95117">
        <ele>68.87</ele>
        <time>2013-04-25T11:36:05Z</time>
      </trkpt>
      <trkpt lat="43.4583" lon="-0.95131">
        <ele>69.35</ele>
        <time>2013-04-25T11:36:16Z</time>
      </trkpt>
      <trkpt lat="43.45835" lon="-0.95131">
        <ele>69.35</ele>
        <time>2013-04-25T11:37:03Z</time>
      </trkpt>
      <trkpt lat="43.45842" lon="-0.95149">
        <ele>69.83</ele>
        <time>2013-04-25T11:37:15Z</time>
      </trkpt>
      <trkpt lat="43.45849" lon="-0.95163">
        <ele>70.79</ele>
        <time>2013-04-25T11:37:29Z</time>
      </trkpt>
      <trkpt lat="43.45853" lon="-0.95179">
        <ele>72.24</ele>
        <time>2013-04-25T11:37:42Z</time>
      </trkpt>
      <trkpt lat="43.45859" lon="-0.95194">
        <ele>71.76</ele>
        <time>2013-04-25T11:37:55Z</time>
      </trkpt>
      <trkpt lat="43.45866" lon="-0.95206">
        <ele>70.79</ele>
        <time>2013-04-25T11:38:06Z</time>
      </trkpt>
      <trkpt lat="43.45872" lon="-0.95218">
        <ele>70.31</ele>
        <time>2013-04-25T11:38:18Z</time>
      </trkpt>
      <trkpt lat="43.45875" lon="-0.95236">
        <ele>69.35</ele>
        <time>2013-04-25T11:38:31Z</time>
      </trkpt>
      <trkpt lat="43.4588" lon="-0.95251">
        <ele>69.35</ele>
        <time>2013-04-25T11:38:43Z</time>
      </trkpt>
      <trkpt lat="43.45886" lon="-0.95268">
        <ele>69.35</ele>
        <time>2013-04-25T11:38:56Z</time>
      </trkpt>
      <trkpt lat="43.45891" lon="-0.95283">
        <ele>69.35</ele>
        <time>2013-04-25T11:39:09Z</time>
      </trkpt>
      <trkpt lat="43.45898" lon="-0.95288">
        <ele>68.87</ele>
        <time>2013-04-25T11:39:29Z</time>
      </trkpt>
      <trkpt lat="43.45902" lon="-0.95302">
        <ele>68.87</ele>
        <time>2013-04-25T11:39:40Z</time>
      </trkpt>
      <trkpt lat="43.45907" lon="-0.95318">
        <ele>68.39</ele>
        <time>2013-04-25T11:39:53Z</time>
      </trkpt>
      <trkpt lat="43.45909" lon="-0.95322">
        <ele>68.87</ele>
        <time>2013-04-25T11:40:19Z</time>
      </trkpt>
      <trkpt lat="43.45916" lon="-0.95333">
        <ele>68.87</ele>
        <time>2013-04-25T11:40:34Z</time>
      </trkpt>
      <trkpt lat="43.45922" lon="-0.95346">
        <ele>68.87</ele>
        <time>2013-04-25T11:41:39Z</time>
      </trkpt>
      <trkpt lat="43.45928" lon="-0.95359">
        <ele>68.87</ele>
        <time>2013-04-25T11:41:51Z</time>
      </trkpt>
      <trkpt lat="43.45937" lon="-0.95366">
        <ele>68.39</ele>
        <time>2013-04-25T11:42:03Z</time>
      </trkpt>
      <trkpt lat="43.45944" lon="-0.95375">
        <ele>65.99</ele>
        <time>2013-04-25T11:42:15Z</time>
      </trkpt>
      <trkpt lat="43.45949" lon="-0.95379">
        <ele>64.55</ele>
        <time>2013-04-25T11:42:29Z</time>
      </trkpt>
      <trkpt lat="43.45952" lon="-0.95393">
        <ele>63.1</ele>
        <time>2013-04-25T11:42:48Z</time>
      </trkpt>
      <trkpt lat="43.45958" lon="-0.95407">
        <ele>62.62</ele>
        <time>2013-04-25T11:43:05Z</time>
      </trkpt>
      <trkpt lat="43.45967" lon="-0.95403">
        <ele>62.62</ele>
        <time>2013-04-25T11:43:27Z</time>
      </trkpt>
      <trkpt lat="43.45965" lon="-0.95406">
        <ele>63.1</ele>
        <time>2013-04-25T11:44:05Z</time>
      </trkpt>
      <trkpt lat="43.45967" lon="-0.95422">
        <ele>64.07</ele>
        <time>2013-04-25T11:44:24Z</time>
      </trkpt>
      <trkpt lat="43.45968" lon="-0.95436">
        <ele>65.03</ele>
        <time>2013-04-25T11:44:37Z</time>
      </trkpt>
      <trkpt lat="43.45971" lon="-0.9545">
        <ele>65.99</ele>
        <time>2013-04-25T11:44:51Z</time>
      </trkpt>
      <trkpt lat="43.45978" lon="-0.9546">
        <ele>65.51</ele>
        <time>2013-04-25T11:45:05Z</time>
      </trkpt>
      <trkpt lat="43.45989" lon="-0.95468">
        <ele>64.07</ele>
        <time>2013-04-25T11:45:16Z</time>
      </trkpt>
      <trkpt lat="43.46" lon="-0.9547">
        <ele>63.58</ele>
        <time>2013-04-25T11:45:26Z</time>
      </trkpt>
      <trkpt lat="43.4601" lon="-0.95478">
        <ele>63.1</ele>
        <time>2013-04-25T11:45:37Z</time>
      </trkpt>
      <trkpt lat="43.46018" lon="-0.95489">
        <ele>62.62</ele>
        <time>2013-04-25T11:45:49Z</time>
      </trkpt>
      <trkpt lat="43.46025" lon="-0.95504">
        <ele>63.1</ele>
        <time>2013-04-25T11:46:00Z</time>
      </trkpt>
      <trkpt lat="43.4603" lon="-0.9552">
        <ele>63.1</ele>
        <time>2013-04-25T11:46:12Z</time>
      </trkpt>
      <trkpt lat="43.46036" lon="-0.95531">
        <ele>62.14</ele>
        <time>2013-04-25T11:46:22Z</time>
      </trkpt>
      <trkpt lat="43.4604" lon="-0.95546">
        <ele>63.1</ele>
        <time>2013-04-25T11:46:33Z</time>
      </trkpt>
      <trkpt lat="43.46044" lon="-0.95564">
        <ele>64.07</ele>
        <time>2013-04-25T11:46:45Z</time>
      </trkpt>
      <trkpt lat="43.46049" lon="-0.95576">
        <ele>64.07</ele>
        <time>2013-04-25T11:46:56Z</time>
      </trkpt>
      <trkpt lat="43.46051" lon="-0.9559">
        <ele>63.58</ele>
        <time>2013-04-25T11:47:08Z</time>
      </trkpt>
      <trkpt lat="43.46051" lon="-0.95607">
        <ele>64.07</ele>
        <time>2013-04-25T11:47:20Z</time>
      </trkpt>
      <trkpt lat="43.46055" lon="-0.9562">
        <ele>63.1</ele>
        <time>2013-04-25T11:47:31Z</time>
      </trkpt>
      <trkpt lat="43.4606" lon="-0.95634">
        <ele>63.1</ele>
        <time>2013-04-25T11:47:43Z</time>
      </trkpt>
      <trkpt lat="43.46063" lon="-0.95649">
        <ele>61.18</ele>
        <time>2013-04-25T11:47:56Z</time>
      </trkpt>
      <trkpt lat="43.46066" lon="-0.95663">
        <ele>61.18</ele>
        <time>2013-04-25T11:48:07Z</time>
      </trkpt>
      <trkpt lat="43.46066" lon="-0.95677">
        <ele>60.22</ele>
        <time>2013-04-25T11:48:18Z</time>
      </trkpt>
      <trkpt lat="43.46067" lon="-0.95691">
        <ele>59.74</ele>
        <time>2013-04-25T11:48:29Z</time>
      </trkpt>
      <trkpt lat="43.46067" lon="-0.95705">
        <ele>58.78</ele>
        <time>2013-04-25T11:48:39Z</time>
      </trkpt>
      <trkpt lat="43.46067" lon="-0.9572">
        <ele>59.74</ele>
        <time>2013-04-25T11:48:53Z</time>
      </trkpt>
      <trkpt lat="43.46066" lon="-0.95736">
        <ele>59.26</ele>
        <time>2013-04-25T11:49:04Z</time>
      </trkpt>
      <trkpt lat="43.46063" lon="-0.95751">
        <ele>59.26</ele>
        <time>2013-04-25T11:49:17Z</time>
      </trkpt>
      <trkpt lat="43.46056" lon="-0.95764">
        <ele>59.26</ele>
        <time>2013-04-25T11:49:30Z</time>
      </trkpt>
      <trkpt lat="43.4605" lon="-0.95772">
        <ele>59.26</ele>
        <time>2013-04-25T11:49:41Z</time>
      </trkpt>
      <trkpt lat="43.46052" lon="-0.95788">
        <ele>58.78</ele>
        <time>2013-04-25T11:49:56Z</time>
      </trkpt>
      <trkpt lat="43.46061" lon="-0.95798">
        <ele>58.78</ele>
        <time>2013-04-25T11:50:13Z</time>
      </trkpt>
      <trkpt lat="43.4607" lon="-0.95814">
        <ele>58.78</ele>
        <time>2013-04-25T11:50:23Z</time>
      </trkpt>
      <trkpt lat="43.46077" lon="-0.9583">
        <ele>58.3</ele>
        <time>2013-04-25T11:50:35Z</time>
      </trkpt>
      <trkpt lat="43.46082" lon="-0.95842">
        <ele>58.78</ele>
        <time>2013-04-25T11:50:46Z</time>
      </trkpt>
      <trkpt lat="43.46092" lon="-0.95854">
        <ele>59.26</ele>
        <time>2013-04-25T11:50:59Z</time>
      </trkpt>
      <trkpt lat="43.46102" lon="-0.95867">
        <ele>58.3</ele>
        <time>2013-04-25T11:51:10Z</time>
      </trkpt>
      <trkpt lat="43.4611" lon="-0.95875">
        <ele>57.34</ele>
        <time>2013-04-25T11:51:22Z</time>
      </trkpt>
      <trkpt lat="43.46118" lon="-0.95885">
        <ele>57.34</ele>
        <time>2013-04-25T11:51:33Z</time>
      </trkpt>
      <trkpt lat="43.46123" lon="-0.95897">
        <ele>56.86</ele>
        <time>2013-04-25T11:51:44Z</time>
      </trkpt>
      <trkpt lat="43.46128" lon="-0.95913">
        <ele>56.86</ele>
        <time>2013-04-25T11:51:57Z</time>
      </trkpt>
      <trkpt lat="43.4613" lon="-0.95929">
        <ele>56.37</ele>
        <time>2013-04-25T11:52:09Z</time>
      </trkpt>
      <trkpt lat="43.46131" lon="-0.95946">
        <ele>55.89</ele>
        <time>2013-04-25T11:52:21Z</time>
      </trkpt>
      <trkpt lat="43.46137" lon="-0.9596">
        <ele>55.89</ele>
        <time>2013-04-25T11:52:32Z</time>
      </trkpt>
      <trkpt lat="43.46143" lon="-0.95972">
        <ele>55.89</ele>
        <time>2013-04-25T11:52:44Z</time>
      </trkpt>
      <trkpt lat="43.46152" lon="-0.95983">
        <ele>55.41</ele>
        <time>2013-04-25T11:52:54Z</time>
      </trkpt>
      <trkpt lat="43.46158" lon="-0.95994">
        <ele>55.89</ele>
        <time>2013-04-25T11:53:03Z</time>
      </trkpt>
      <trkpt lat="43.46162" lon="-0.96008">
        <ele>54.93</ele>
        <time>2013-04-25T11:53:13Z</time>
      </trkpt>
      <trkpt lat="43.46167" lon="-0.9602">
        <ele>53.97</ele>
        <time>2013-04-25T11:53:23Z</time>
      </trkpt>
      <trkpt lat="43.46171" lon="-0.96032">
        <ele>52.53</ele>
        <time>2013-04-25T11:53:32Z</time>
      </trkpt>
      <trkpt lat="43.46174" lon="-0.96045">
        <ele>52.53</ele>
        <time>2013-04-25T11:53:41Z</time>
      </trkpt>
      <trkpt lat="43.4618" lon="-0.96057">
        <ele>53.49</ele>
        <time>2013-04-25T11:53:51Z</time>
      </trkpt>
      <trkpt lat="43.46188" lon="-0.96068">
        <ele>52.53</ele>
        <time>2013-04-25T11:54:01Z</time>
      </trkpt>
      <trkpt lat="43.46196" lon="-0.96076">
        <ele>52.05</ele>
        <time>2013-04-25T11:54:12Z</time>
      </trkpt>
      <trkpt lat="43.46202" lon="-0.96085">
        <ele>52.05</ele>
        <time>2013-04-25T11:54:23Z</time>
      </trkpt>
      <trkpt lat="43.46215" lon="-0.96094">
        <ele>51.09</ele>
        <time>2013-04-25T11:54:35Z</time>
      </trkpt>
      <trkpt lat="43.46224" lon="-0.96104">
        <ele>50.61</ele>
        <time>2013-04-25T11:54:45Z</time>
      </trkpt>
      <trkpt lat="43.4623" lon="-0.96116">
        <ele>49.16</ele>
        <time>2013-04-25T11:54:55Z</time>
      </trkpt>
      <trkpt lat="43.46237" lon="-0.96126">
        <ele>48.2</ele>
        <time>2013-04-25T11:55:05Z</time>
      </trkpt>
      <trkpt lat="43.46245" lon="-0.96135">
        <ele>47.24</ele>
        <time>2013-04-25T11:55:18Z</time>
      </trkpt>
      <trkpt lat="43.46254" lon="-0.96145">
        <ele>46.76</ele>
        <time>2013-04-25T11:55:29Z</time>
      </trkpt>
      <trkpt lat="43.46263" lon="-0.96154">
        <ele>46.28</ele>
        <time>2013-04-25T11:55:38Z</time>
      </trkpt>
      <trkpt lat="43.4627" lon="-0.96163">
        <ele>45.8</ele>
        <time>2013-04-25T11:55:47Z</time>
      </trkpt>
      <trkpt lat="43.46279" lon="-0.96169">
        <ele>45.32</ele>
        <time>2013-04-25T11:55:59Z</time>
      </trkpt>
      <trkpt lat="43.4629" lon="-0.96167">
        <ele>44.84</ele>
        <time>2013-04-25T11:56:52Z</time>
      </trkpt>
      <trkpt lat="43.46296" lon="-0.96155">
        <ele>44.36</ele>
        <time>2013-04-25T11:57:04Z</time>
      </trkpt>
      <trkpt lat="43.46304" lon="-0.96142">
        <ele>44.36</ele>
        <time>2013-04-25T11:57:15Z</time>
      </trkpt>
      <trkpt lat="43.4631" lon="-0.96132">
        <ele>44.36</ele>
        <time>2013-04-25T11:57:25Z</time>
      </trkpt>
      <trkpt lat="43.46315" lon="-0.9612">
        <ele>43.4</ele>
        <time>2013-04-25T11:57:38Z</time>
      </trkpt>
      <trkpt lat="43.46321" lon="-0.9611">
        <ele>43.88</ele>
        <time>2013-04-25T11:57:48Z</time>
      </trkpt>
      <trkpt lat="43.46326" lon="-0.961">
        <ele>45.8</ele>
        <time>2013-04-25T11:57:59Z</time>
      </trkpt>
      <trkpt lat="43.46329" lon="-0.96088">
        <ele>43.88</ele>
        <time>2013-04-25T11:58:14Z</time>
      </trkpt>
      <trkpt lat="43.46333" lon="-0.96075">
        <ele>43.88</ele>
        <time>2013-04-25T11:58:25Z</time>
      </trkpt>
      <trkpt lat="43.46336" lon="-0.96065">
        <ele>43.88</ele>
        <time>2013-04-25T11:58:41Z</time>
      </trkpt>
      <trkpt lat="43.46342" lon="-0.96053">
        <ele>43.88</ele>
        <time>2013-04-25T11:58:51Z</time>
      </trkpt>
      <trkpt lat="43.46346" lon="-0.96043">
        <ele>43.88</ele>
        <time>2013-04-25T11:59:06Z</time>
      </trkpt>
      <trkpt lat="43.46352" lon="-0.96032">
        <ele>43.4</ele>
        <time>2013-04-25T11:59:15Z</time>
      </trkpt>
      <trkpt lat="43.46356" lon="-0.96021">
        <ele>43.4</ele>
        <time>2013-04-25T11:59:23Z</time>
      </trkpt>
      <trkpt lat="43.46363" lon="-0.9601">
        <ele>43.4</ele>
        <time>2013-04-25T11:59:32Z</time>
      </trkpt>
      <trkpt lat="43.46369" lon="-0.96001">
        <ele>42.92</ele>
        <time>2013-04-25T11:59:41Z</time>
      </trkpt>
      <trkpt lat="43.46376" lon="-0.95992">
        <ele>43.4</ele>
        <time>2013-04-25T11:59:50Z</time>
      </trkpt>
      <trkpt lat="43.46384" lon="-0.9599">
        <ele>41.95</ele>
        <time>2013-04-25T12:00:12Z</time>
      </trkpt>
      <trkpt lat="43.46393" lon="-0.95988">
        <ele>41.95</ele>
        <time>2013-04-25T12:00:20Z</time>
      </trkpt>
      <trkpt lat="43.46401" lon="-0.95982">
        <ele>42.44</ele>
        <time>2013-04-25T12:00:37Z</time>
      </trkpt>
      <trkpt lat="43.46402" lon="-0.95977">
        <ele>42.44</ele>
        <time>2013-04-25T12:01:53Z</time>
      </trkpt>
      <trkpt lat="43.46407" lon="-0.95963">
        <ele>42.44</ele>
        <time>2013-04-25T12:02:04Z</time>
      </trkpt>
      <trkpt lat="43.46411" lon="-0.9595">
        <ele>42.44</ele>
        <time>2013-04-25T12:02:15Z</time>
      </trkpt>
      <trkpt lat="43.46413" lon="-0.95938">
        <ele>42.92</ele>
        <time>2013-04-25T12:02:24Z</time>
      </trkpt>
      <trkpt lat="43.46416" lon="-0.95925">
        <ele>42.92</ele>
        <time>2013-04-25T12:02:36Z</time>
      </trkpt>
      <trkpt lat="43.46419" lon="-0.95912">
        <ele>42.44</ele>
        <time>2013-04-25T12:02:45Z</time>
      </trkpt>
      <trkpt lat="43.46422" lon="-0.95899">
        <ele>42.92</ele>
        <time>2013-04-25T12:02:54Z</time>
      </trkpt>
      <trkpt lat="43.46425" lon="-0.95885">
        <ele>42.92</ele>
        <time>2013-04-25T12:03:04Z</time>
      </trkpt>
      <trkpt lat="43.46429" lon="-0.95871">
        <ele>43.4</ele>
        <time>2013-04-25T12:03:14Z</time>
      </trkpt>
      <trkpt lat="43.46431" lon="-0.95857">
        <ele>43.4</ele>
        <time>2013-04-25T12:03:24Z</time>
      </trkpt>
      <trkpt lat="43.46434" lon="-0.95844">
        <ele>43.4</ele>
        <time>2013-04-25T12:03:33Z</time>
      </trkpt>
      <trkpt lat="43.46438" lon="-0.95831">
        <ele>43.88</ele>
        <time>2013-04-25T12:03:43Z</time>
      </trkpt>
      <trkpt lat="43.46441" lon="-0.95818">
        <ele>43.88</ele>
        <time>2013-04-25T12:03:52Z</time>
      </trkpt>
      <trkpt lat="43.46443" lon="-0.95806">
        <ele>43.4</ele>
        <time>2013-04-25T12:04:01Z</time>
      </trkpt>
      <trkpt lat="43.46447" lon="-0.95794">
        <ele>43.88</ele>
        <time>2013-04-25T12:04:10Z</time>
      </trkpt>
      <trkpt lat="43.4645" lon="-0.95781">
        <ele>43.88</ele>
        <time>2013-04-25T12:04:20Z</time>
      </trkpt>
      <trkpt lat="43.46451" lon="-0.95769">
        <ele>43.88</ele>
        <time>2013-04-25T12:04:30Z</time>
      </trkpt>
      <trkpt lat="43.46453" lon="-0.95754">
        <ele>43.88</ele>
        <time>2013-04-25T12:04:40Z</time>
      </trkpt>
      <trkpt lat="43.46455" lon="-0.95741">
        <ele>44.36</ele>
        <time>2013-04-25T12:04:50Z</time>
      </trkpt>
      <trkpt lat="43.46458" lon="-0.95728">
        <ele>44.84</ele>
        <time>2013-04-25T12:05:01Z</time>
      </trkpt>
      <trkpt lat="43.4646" lon="-0.95714">
        <ele>44.84</ele>
        <time>2013-04-25T12:05:10Z</time>
      </trkpt>
      <trkpt lat="43.46463" lon="-0.957">
        <ele>44.84</ele>
        <time>2013-04-25T12:05:19Z</time>
      </trkpt>
      <trkpt lat="43.46466" lon="-0.95687">
        <ele>44.36</ele>
        <time>2013-04-25T12:05:28Z</time>
      </trkpt>
      <trkpt lat="43.4647" lon="-0.95676">
        <ele>44.84</ele>
        <time>2013-04-25T12:05:36Z</time>
      </trkpt>
      <trkpt lat="43.46471" lon="-0.95663">
        <ele>44.84</ele>
        <time>2013-04-25T12:05:45Z</time>
      </trkpt>
      <trkpt lat="43.46475" lon="-0.9565">
        <ele>45.32</ele>
        <time>2013-04-25T12:05:54Z</time>
      </trkpt>
      <trkpt lat="43.46479" lon="-0.95638">
        <ele>45.32</ele>
        <time>2013-04-25T12:06:04Z</time>
      </trkpt>
      <trkpt lat="43.4648" lon="-0.95623">
        <ele>44.84</ele>
        <time>2013-04-25T12:06:14Z</time>
      </trkpt>
      <trkpt lat="43.46483" lon="-0.95609">
        <ele>45.32</ele>
        <time>2013-04-25T12:06:24Z</time>
      </trkpt>
      <trkpt lat="43.46486" lon="-0.95597">
        <ele>45.32</ele>
        <time>2013-04-25T12:06:34Z</time>
      </trkpt>
      <trkpt lat="43.46489" lon="-0.95584">
        <ele>45.8</ele>
        <time>2013-04-25T12:06:43Z</time>
      </trkpt>
      <trkpt lat="43.46492" lon="-0.95569">
        <ele>45.8</ele>
        <time>2013-04-25T12:06:52Z</time>
      </trkpt>
      <trkpt lat="43.46495" lon="-0.95557">
        <ele>45.32</ele>
        <time>2013-04-25T12:07:01Z</time>
      </trkpt>
      <trkpt lat="43.46499" lon="-0.95543">
        <ele>45.8</ele>
        <time>2013-04-25T12:07:10Z</time>
      </trkpt>
      <trkpt lat="43.46503" lon="-0.95531">
        <ele>45.32</ele>
        <time>2013-04-25T12:07:19Z</time>
      </trkpt>
      <trkpt lat="43.46504" lon="-0.95516">
        <ele>45.8</ele>
        <time>2013-04-25T12:07:28Z</time>
      </trkpt>
      <trkpt lat="43.46506" lon="-0.95503">
        <ele>45.8</ele>
        <time>2013-04-25T12:07:37Z</time>
      </trkpt>
      <trkpt lat="43.46509" lon="-0.95492">
        <ele>46.28</ele>
        <time>2013-04-25T12:07:46Z</time>
      </trkpt>
      <trkpt lat="43.46511" lon="-0.95479">
        <ele>46.28</ele>
        <time>2013-04-25T12:07:55Z</time>
      </trkpt>
      <trkpt lat="43.46513" lon="-0.95465">
        <ele>46.28</ele>
        <time>2013-04-25T12:08:04Z</time>
      </trkpt>
      <trkpt lat="43.46516" lon="-0.95451">
        <ele>46.28</ele>
        <time>2013-04-25T12:08:13Z</time>
      </trkpt>
      <trkpt lat="43.46518" lon="-0.95437">
        <ele>46.28</ele>
        <time>2013-04-25T12:08:22Z</time>
      </trkpt>
      <trkpt lat="43.46521" lon="-0.95424">
        <ele>46.28</ele>
        <time>2013-04-25T12:08:31Z</time>
      </trkpt>
      <trkpt lat="43.46523" lon="-0.95412">
        <ele>46.76</ele>
        <time>2013-04-25T12:08:40Z</time>
      </trkpt>
      <trkpt lat="43.46524" lon="-0.95398">
        <ele>46.76</ele>
        <time>2013-04-25T12:08:49Z</time>
      </trkpt>
      <trkpt lat="43.46526" lon="-0.95385">
        <ele>46.28</ele>
        <time>2013-04-25T12:08:58Z</time>
      </trkpt>
      <trkpt lat="43.46529" lon="-0.95369">
        <ele>46.76</ele>
        <time>2013-04-25T12:09:08Z</time>
      </trkpt>
      <trkpt lat="43.46534" lon="-0.95355">
        <ele>46.76</ele>
        <time>2013-04-25T12:09:17Z</time>
      </trkpt>
      <trkpt lat="43.46537" lon="-0.95342">
        <ele>46.76</ele>
        <time>2013-04-25T12:09:25Z</time>
      </trkpt>
      <trkpt lat="43.4654" lon="-0.95329">
        <ele>46.76</ele>
        <time>2013-04-25T12:09:34Z</time>
      </trkpt>
      <trkpt lat="43.46543" lon="-0.95316">
        <ele>47.24</ele>
        <time>2013-04-25T12:09:43Z</time>
      </trkpt>
      <trkpt lat="43.46547" lon="-0.95301">
        <ele>46.28</ele>
        <time>2013-04-25T12:09:55Z</time>
      </trkpt>
      <trkpt lat="43.46549" lon="-0.95285">
        <ele>46.76</ele>
        <time>2013-04-25T12:10:06Z</time>
      </trkpt>
      <trkpt lat="43.46552" lon="-0.95269">
        <ele>46.76</ele>
        <time>2013-04-25T12:10:15Z</time>
      </trkpt>
      <trkpt lat="43.46555" lon="-0.95256">
        <ele>46.76</ele>
        <time>2013-04-25T12:10:24Z</time>
      </trkpt>
      <trkpt lat="43.46558" lon="-0.95242">
        <ele>46.76</ele>
        <time>2013-04-25T12:10:32Z</time>
      </trkpt>
      <trkpt lat="43.46562" lon="-0.95229">
        <ele>46.76</ele>
        <time>2013-04-25T12:10:41Z</time>
      </trkpt>
      <trkpt lat="43.46565" lon="-0.95216">
        <ele>46.76</ele>
        <time>2013-04-25T12:10:50Z</time>
      </trkpt>
      <trkpt lat="43.46567" lon="-0.95202">
        <ele>47.24</ele>
        <time>2013-04-25T12:10:59Z</time>
      </trkpt>
      <trkpt lat="43.4657" lon="-0.95189">
        <ele>47.24</ele>
        <time>2013-04-25T12:11:07Z</time>
      </trkpt>
      <trkpt lat="43.46573" lon="-0.95177">
        <ele>47.24</ele>
        <time>2013-04-25T12:11:15Z</time>
      </trkpt>
      <trkpt lat="43.46576" lon="-0.95167">
        <ele>46.76</ele>
        <time>2013-04-25T12:11:23Z</time>
      </trkpt>
      <trkpt lat="43.46578" lon="-0.95155">
        <ele>47.24</ele>
        <time>2013-04-25T12:11:31Z</time>
      </trkpt>
      <trkpt lat="43.4658" lon="-0.95143">
        <ele>47.24</ele>
        <time>2013-04-25T12:11:39Z</time>
      </trkpt>
      <trkpt lat="43.46583" lon="-0.9513">
        <ele>46.76</ele>
        <time>2013-04-25T12:11:47Z</time>
      </trkpt>
      <trkpt lat="43.46587" lon="-0.95117">
        <ele>47.24</ele>
        <time>2013-04-25T12:11:55Z</time>
      </trkpt>
      <trkpt lat="43.4659" lon="-0.95103">
        <ele>47.24</ele>
        <time>2013-04-25T12:12:04Z</time>
      </trkpt>
      <trkpt lat="43.46594" lon="-0.95092">
        <ele>47.24</ele>
        <time>2013-04-25T12:12:12Z</time>
      </trkpt>
      <trkpt lat="43.46596" lon="-0.95079">
        <ele>47.24</ele>
        <time>2013-04-25T12:12:21Z</time>
      </trkpt>
      <trkpt lat="43.46599" lon="-0.95066">
        <ele>47.24</ele>
        <time>2013-04-25T12:12:29Z</time>
      </trkpt>
      <trkpt lat="43.46602" lon="-0.95053">
        <ele>47.24</ele>
        <time>2013-04-25T12:12:37Z</time>
      </trkpt>
      <trkpt lat="43.46605" lon="-0.95039">
        <ele>46.76</ele>
        <time>2013-04-25T12:12:45Z</time>
      </trkpt>
      <trkpt lat="43.46607" lon="-0.95026">
        <ele>47.24</ele>
        <time>2013-04-25T12:12:54Z</time>
      </trkpt>
      <trkpt lat="43.46609" lon="-0.95013">
        <ele>47.24</ele>
        <time>2013-04-25T12:13:03Z</time>
      </trkpt>
      <trkpt lat="43.46611" lon="-0.95">
        <ele>46.76</ele>
        <time>2013-04-25T12:13:12Z</time>
      </trkpt>
      <trkpt lat="43.46615" lon="-0.94987">
        <ele>46.76</ele>
        <time>2013-04-25T12:13:21Z</time>
      </trkpt>
      <trkpt lat="43.46617" lon="-0.94974">
        <ele>46.76</ele>
        <time>2013-04-25T12:13:30Z</time>
      </trkpt>
      <trkpt lat="43.4662" lon="-0.94962">
        <ele>47.24</ele>
        <time>2013-04-25T12:13:38Z</time>
      </trkpt>
      <trkpt lat="43.46623" lon="-0.94949">
        <ele>47.24</ele>
        <time>2013-04-25T12:13:47Z</time>
      </trkpt>
      <trkpt lat="43.46626" lon="-0.94938">
        <ele>47.24</ele>
        <time>2013-04-25T12:13:55Z</time>
      </trkpt>
      <trkpt lat="43.46628" lon="-0.94926">
        <ele>47.24</ele>
        <time>2013-04-25T12:14:03Z</time>
      </trkpt>
      <trkpt lat="43.46631" lon="-0.94913">
        <ele>47.24</ele>
        <time>2013-04-25T12:14:12Z</time>
      </trkpt>
      <trkpt lat="43.46634" lon="-0.94901">
        <ele>47.24</ele>
        <time>2013-04-25T12:14:20Z</time>
      </trkpt>
      <trkpt lat="43.46637" lon="-0.94889">
        <ele>47.72</ele>
        <time>2013-04-25T12:14:29Z</time>
      </trkpt>
      <trkpt lat="43.46639" lon="-0.94876">
        <ele>47.72</ele>
        <time>2013-04-25T12:14:37Z</time>
      </trkpt>
      <trkpt lat="43.46642" lon="-0.94864">
        <ele>47.72</ele>
        <time>2013-04-25T12:14:46Z</time>
      </trkpt>
      <trkpt lat="43.46644" lon="-0.94852">
        <ele>47.24</ele>
        <time>2013-04-25T12:14:54Z</time>
      </trkpt>
      <trkpt lat="43.46646" lon="-0.94839">
        <ele>47.24</ele>
        <time>2013-04-25T12:15:03Z</time>
      </trkpt>
      <trkpt lat="43.46648" lon="-0.94826">
        <ele>47.24</ele>
        <time>2013-04-25T12:15:12Z</time>
      </trkpt>
      <trkpt lat="43.46651" lon="-0.94813">
        <ele>47.24</ele>
        <time>2013-04-25T12:15:20Z</time>
      </trkpt>
      <trkpt lat="43.46654" lon="-0.948">
        <ele>47.24</ele>
        <time>2013-04-25T12:15:29Z</time>
      </trkpt>
      <trkpt lat="43.46656" lon="-0.94789">
        <ele>47.24</ele>
        <time>2013-04-25T12:15:38Z</time>
      </trkpt>
      <trkpt lat="43.4666" lon="-0.94778">
        <ele>47.24</ele>
        <time>2013-04-25T12:15:46Z</time>
      </trkpt>
      <trkpt lat="43.46661" lon="-0.94765">
        <ele>47.72</ele>
        <time>2013-04-25T12:15:55Z</time>
      </trkpt>
      <trkpt lat="43.46663" lon="-0.94753">
        <ele>48.2</ele>
        <time>2013-04-25T12:16:04Z</time>
      </trkpt>
      <trkpt lat="43.46666" lon="-0.9474">
        <ele>47.72</ele>
        <time>2013-04-25T12:16:13Z</time>
      </trkpt>
      <trkpt lat="43.46669" lon="-0.94726">
        <ele>47.72</ele>
        <time>2013-04-25T12:16:22Z</time>
      </trkpt>
      <trkpt lat="43.46672" lon="-0.94715">
        <ele>47.72</ele>
        <time>2013-04-25T12:16:30Z</time>
      </trkpt>
      <trkpt lat="43.46674" lon="-0.94704">
        <ele>47.72</ele>
        <time>2013-04-25T12:16:38Z</time>
      </trkpt>
      <trkpt lat="43.46677" lon="-0.94692">
        <ele>47.24</ele>
        <time>2013-04-25T12:16:46Z</time>
      </trkpt>
      <trkpt lat="43.46679" lon="-0.94678">
        <ele>47.24</ele>
        <time>2013-04-25T12:16:55Z</time>
      </trkpt>
      <trkpt lat="43.4668" lon="-0.94665">
        <ele>47.72</ele>
        <time>2013-04-25T12:17:04Z</time>
      </trkpt>
      <trkpt lat="43.46683" lon="-0.94651">
        <ele>48.2</ele>
        <time>2013-04-25T12:17:14Z</time>
      </trkpt>
      <trkpt lat="43.46685" lon="-0.94636">
        <ele>48.2</ele>
        <time>2013-04-25T12:17:24Z</time>
      </trkpt>
      <trkpt lat="43.46687" lon="-0.94624">
        <ele>47.72</ele>
        <time>2013-04-25T12:17:33Z</time>
      </trkpt>
      <trkpt lat="43.46691" lon="-0.94612">
        <ele>48.2</ele>
        <time>2013-04-25T12:17:42Z</time>
      </trkpt>
      <trkpt lat="43.46689" lon="-0.94602">
        <ele>48.2</ele>
        <time>2013-04-25T12:17:58Z</time>
      </trkpt>
      <trkpt lat="43.46692" lon="-0.94592">
        <ele>47.72</ele>
        <time>2013-04-25T12:21:48Z</time>
      </trkpt>
      <trkpt lat="43.46696" lon="-0.9458">
        <ele>47.72</ele>
        <time>2013-04-25T12:21:57Z</time>
      </trkpt>
      <trkpt lat="43.46699" lon="-0.94569">
        <ele>47.72</ele>
        <time>2013-04-25T12:22:08Z</time>
      </trkpt>
      <trkpt lat="43.46701" lon="-0.94558">
        <ele>48.2</ele>
        <time>2013-04-25T12:22:34Z</time>
      </trkpt>
      <trkpt lat="43.46705" lon="-0.94546">
        <ele>47.72</ele>
        <time>2013-04-25T12:22:43Z</time>
      </trkpt>
      <trkpt lat="43.46708" lon="-0.94533">
        <ele>47.72</ele>
        <time>2013-04-25T12:22:53Z</time>
      </trkpt>
      <trkpt lat="43.4671" lon="-0.94521">
        <ele>47.72</ele>
        <time>2013-04-25T12:23:03Z</time>
      </trkpt>
      <trkpt lat="43.46713" lon="-0.94508">
        <ele>47.72</ele>
        <time>2013-04-25T12:23:12Z</time>
      </trkpt>
      <trkpt lat="43.46714" lon="-0.94495">
        <ele>47.72</ele>
        <time>2013-04-25T12:23:21Z</time>
      </trkpt>
      <trkpt lat="43.46718" lon="-0.94482">
        <ele>47.24</ele>
        <time>2013-04-25T12:23:30Z</time>
      </trkpt>
      <trkpt lat="43.46721" lon="-0.9447">
        <ele>47.24</ele>
        <time>2013-04-25T12:23:38Z</time>
      </trkpt>
      <trkpt lat="43.46722" lon="-0.94457">
        <ele>47.24</ele>
        <time>2013-04-25T12:23:46Z</time>
      </trkpt>
      <trkpt lat="43.46725" lon="-0.94444">
        <ele>47.24</ele>
        <time>2013-04-25T12:23:55Z</time>
      </trkpt>
      <trkpt lat="43.46728" lon="-0.94431">
        <ele>47.24</ele>
        <time>2013-04-25T12:24:04Z</time>
      </trkpt>
      <trkpt lat="43.4673" lon="-0.94417">
        <ele>47.24</ele>
        <time>2013-04-25T12:24:13Z</time>
      </trkpt>
      <trkpt lat="43.46732" lon="-0.94405">
        <ele>47.72</ele>
        <time>2013-04-25T12:24:22Z</time>
      </trkpt>
      <trkpt lat="43.46734" lon="-0.94391">
        <ele>47.24</ele>
        <time>2013-04-25T12:24:31Z</time>
      </trkpt>
      <trkpt lat="43.46736" lon="-0.94378">
        <ele>47.24</ele>
        <time>2013-04-25T12:24:40Z</time>
      </trkpt>
      <trkpt lat="43.46739" lon="-0.94365">
        <ele>47.24</ele>
        <time>2013-04-25T12:24:49Z</time>
      </trkpt>
      <trkpt lat="43.46743" lon="-0.94353">
        <ele>47.72</ele>
        <time>2013-04-25T12:24:59Z</time>
      </trkpt>
      <trkpt lat="43.46746" lon="-0.9434">
        <ele>47.24</ele>
        <time>2013-04-25T12:25:21Z</time>
      </trkpt>
      <trkpt lat="43.46748" lon="-0.94327">
        <ele>47.24</ele>
        <time>2013-04-25T12:25:29Z</time>
      </trkpt>
      <trkpt lat="43.46751" lon="-0.94314">
        <ele>47.24</ele>
        <time>2013-04-25T12:25:38Z</time>
      </trkpt>
      <trkpt lat="43.46753" lon="-0.943">
        <ele>47.24</ele>
        <time>2013-04-25T12:25:47Z</time>
      </trkpt>
      <trkpt lat="43.46756" lon="-0.94288">
        <ele>47.24</ele>
        <time>2013-04-25T12:25:55Z</time>
      </trkpt>
      <trkpt lat="43.46761" lon="-0.94275">
        <ele>45.8</ele>
        <time>2013-04-25T12:26:04Z</time>
      </trkpt>
      <trkpt lat="43.46762" lon="-0.94261">
        <ele>47.72</ele>
        <time>2013-04-25T12:26:13Z</time>
      </trkpt>
      <trkpt lat="43.46764" lon="-0.94248">
        <ele>47.72</ele>
        <time>2013-04-25T12:26:23Z</time>
      </trkpt>
      <trkpt lat="43.46765" lon="-0.94235">
        <ele>47.24</ele>
        <time>2013-04-25T12:26:33Z</time>
      </trkpt>
      <trkpt lat="43.46767" lon="-0.94219">
        <ele>47.24</ele>
        <time>2013-04-25T12:26:42Z</time>
      </trkpt>
      <trkpt lat="43.46771" lon="-0.94204">
        <ele>47.24</ele>
        <time>2013-04-25T12:26:51Z</time>
      </trkpt>
      <trkpt lat="43.46773" lon="-0.9419">
        <ele>47.24</ele>
        <time>2013-04-25T12:27:00Z</time>
      </trkpt>
      <trkpt lat="43.46777" lon="-0.94176">
        <ele>47.24</ele>
        <time>2013-04-25T12:27:09Z</time>
      </trkpt>
      <trkpt lat="43.46783" lon="-0.94162">
        <ele>47.24</ele>
        <time>2013-04-25T12:27:18Z</time>
      </trkpt>
      <trkpt lat="43.46786" lon="-0.94147">
        <ele>47.24</ele>
        <time>2013-04-25T12:27:27Z</time>
      </trkpt>
      <trkpt lat="43.46789" lon="-0.94133">
        <ele>47.24</ele>
        <time>2013-04-25T12:27:36Z</time>
      </trkpt>
      <trkpt lat="43.46792" lon="-0.9412">
        <ele>47.24</ele>
        <time>2013-04-25T12:27:44Z</time>
      </trkpt>
      <trkpt lat="43.46794" lon="-0.94107">
        <ele>47.72</ele>
        <time>2013-04-25T12:27:53Z</time>
      </trkpt>
      <trkpt lat="43.46796" lon="-0.94094">
        <ele>47.72</ele>
        <time>2013-04-25T12:28:02Z</time>
      </trkpt>
      <trkpt lat="43.468" lon="-0.94081">
        <ele>48.2</ele>
        <time>2013-04-25T12:28:10Z</time>
      </trkpt>
      <trkpt lat="43.46803" lon="-0.94068">
        <ele>48.2</ele>
        <time>2013-04-25T12:28:19Z</time>
      </trkpt>
      <trkpt lat="43.46805" lon="-0.94053">
        <ele>47.72</ele>
        <time>2013-04-25T12:28:28Z</time>
      </trkpt>
      <trkpt lat="43.46808" lon="-0.94039">
        <ele>48.2</ele>
        <time>2013-04-25T12:28:37Z</time>
      </trkpt>
      <trkpt lat="43.46811" lon="-0.94026">
        <ele>48.68</ele>
        <time>2013-04-25T12:28:46Z</time>
      </trkpt>
      <trkpt lat="43.46814" lon="-0.94014">
        <ele>48.68</ele>
        <time>2013-04-25T12:28:54Z</time>
      </trkpt>
      <trkpt lat="43.46818" lon="-0.94001">
        <ele>49.16</ele>
        <time>2013-04-25T12:29:03Z</time>
      </trkpt>
      <trkpt lat="43.46822" lon="-0.93988">
        <ele>49.65</ele>
        <time>2013-04-25T12:29:12Z</time>
      </trkpt>
      <trkpt lat="43.46826" lon="-0.93975">
        <ele>49.65</ele>
        <time>2013-04-25T12:29:21Z</time>
      </trkpt>
      <trkpt lat="43.46831" lon="-0.93961">
        <ele>49.65</ele>
        <time>2013-04-25T12:29:31Z</time>
      </trkpt>
      <trkpt lat="43.46835" lon="-0.93947">
        <ele>49.65</ele>
        <time>2013-04-25T12:29:40Z</time>
      </trkpt>
      <trkpt lat="43.4684" lon="-0.93935">
        <ele>50.13</ele>
        <time>2013-04-25T12:29:49Z</time>
      </trkpt>
      <trkpt lat="43.46846" lon="-0.93922">
        <ele>50.13</ele>
        <time>2013-04-25T12:29:58Z</time>
      </trkpt>
      <trkpt lat="43.46851" lon="-0.93909">
        <ele>50.13</ele>
        <time>2013-04-25T12:30:08Z</time>
      </trkpt>
      <trkpt lat="43.46856" lon="-0.93897">
        <ele>50.13</ele>
        <time>2013-04-25T12:30:16Z</time>
      </trkpt>
      <trkpt lat="43.46861" lon="-0.93885">
        <ele>50.13</ele>
        <time>2013-04-25T12:30:24Z</time>
      </trkpt>
      <trkpt lat="43.46866" lon="-0.93872">
        <ele>50.61</ele>
        <time>2013-04-25T12:30:34Z</time>
      </trkpt>
      <trkpt lat="43.46873" lon="-0.93857">
        <ele>50.13</ele>
        <time>2013-04-25T12:30:45Z</time>
      </trkpt>
      <trkpt lat="43.4688" lon="-0.93844">
        <ele>50.13</ele>
        <time>2013-04-25T12:30:55Z</time>
      </trkpt>
      <trkpt lat="43.46886" lon="-0.93831">
        <ele>50.13</ele>
        <time>2013-04-25T12:31:05Z</time>
      </trkpt>
      <trkpt lat="43.46891" lon="-0.93818">
        <ele>50.61</ele>
        <time>2013-04-25T12:31:15Z</time>
      </trkpt>
      <trkpt lat="43.46897" lon="-0.93806">
        <ele>50.61</ele>
        <time>2013-04-25T12:31:24Z</time>
      </trkpt>
      <trkpt lat="43.46902" lon="-0.93795">
        <ele>50.61</ele>
        <time>2013-04-25T12:31:32Z</time>
      </trkpt>
      <trkpt lat="43.46908" lon="-0.93784">
        <ele>51.09</ele>
        <time>2013-04-25T12:31:40Z</time>
      </trkpt>
      <trkpt lat="43.46915" lon="-0.93773">
        <ele>50.13</ele>
        <time>2013-04-25T12:31:49Z</time>
      </trkpt>
      <trkpt lat="43.4692" lon="-0.93761">
        <ele>50.13</ele>
        <time>2013-04-25T12:31:58Z</time>
      </trkpt>
      <trkpt lat="43.46925" lon="-0.93749">
        <ele>50.61</ele>
        <time>2013-04-25T12:32:07Z</time>
      </trkpt>
      <trkpt lat="43.46932" lon="-0.93738">
        <ele>50.61</ele>
        <time>2013-04-25T12:32:16Z</time>
      </trkpt>
      <trkpt lat="43.46938" lon="-0.93725">
        <ele>50.61</ele>
        <time>2013-04-25T12:32:25Z</time>
      </trkpt>
      <trkpt lat="43.46945" lon="-0.93713">
        <ele>51.09</ele>
        <time>2013-04-25T12:32:34Z</time>
      </trkpt>
      <trkpt lat="43.4695" lon="-0.937">
        <ele>51.09</ele>
        <time>2013-04-25T12:32:43Z</time>
      </trkpt>
      <trkpt lat="43.46956" lon="-0.93688">
        <ele>51.09</ele>
        <time>2013-04-25T12:32:52Z</time>
      </trkpt>
      <trkpt lat="43.46961" lon="-0.93675">
        <ele>51.09</ele>
        <time>2013-04-25T12:33:01Z</time>
      </trkpt>
      <trkpt lat="43.46968" lon="-0.93663">
        <ele>51.09</ele>
        <time>2013-04-25T12:33:10Z</time>
      </trkpt>
      <trkpt lat="43.46973" lon="-0.93651">
        <ele>51.57</ele>
        <time>2013-04-25T12:33:19Z</time>
      </trkpt>
      <trkpt lat="43.46979" lon="-0.93639">
        <ele>51.57</ele>
        <time>2013-04-25T12:33:28Z</time>
      </trkpt>
      <trkpt lat="43.46986" lon="-0.93628">
        <ele>52.05</ele>
        <time>2013-04-25T12:33:37Z</time>
      </trkpt>
      <trkpt lat="43.46992" lon="-0.93617">
        <ele>52.53</ele>
        <time>2013-04-25T12:33:45Z</time>
      </trkpt>
      <trkpt lat="43.46998" lon="-0.93605">
        <ele>52.05</ele>
        <time>2013-04-25T12:33:54Z</time>
      </trkpt>
      <trkpt lat="43.47004" lon="-0.93593">
        <ele>52.53</ele>
        <time>2013-04-25T12:34:03Z</time>
      </trkpt>
      <trkpt lat="43.4701" lon="-0.93581">
        <ele>52.05</ele>
        <time>2013-04-25T12:34:12Z</time>
      </trkpt>
      <trkpt lat="43.47015" lon="-0.9357">
        <ele>52.05</ele>
        <time>2013-04-25T12:34:21Z</time>
      </trkpt>
      <trkpt lat="43.47023" lon="-0.93558">
        <ele>52.53</ele>
        <time>2013-04-25T12:34:30Z</time>
      </trkpt>
      <trkpt lat="43.47029" lon="-0.93548">
        <ele>51.57</ele>
        <time>2013-04-25T12:34:38Z</time>
      </trkpt>
      <trkpt lat="43.47034" lon="-0.93539">
        <ele>51.57</ele>
        <time>2013-04-25T12:34:46Z</time>
      </trkpt>
      <trkpt lat="43.47039" lon="-0.93528">
        <ele>51.09</ele>
        <time>2013-04-25T12:34:56Z</time>
      </trkpt>
      <trkpt lat="43.47043" lon="-0.9352">
        <ele>50.13</ele>
        <time>2013-04-25T12:38:09Z</time>
      </trkpt>
      <trkpt lat="43.47047" lon="-0.9351">
        <ele>50.13</ele>
        <time>2013-04-25T12:38:20Z</time>
      </trkpt>
      <trkpt lat="43.47054" lon="-0.93498">
        <ele>50.61</ele>
        <time>2013-04-25T12:38:30Z</time>
      </trkpt>
      <trkpt lat="43.47058" lon="-0.93487">
        <ele>49.65</ele>
        <time>2013-04-25T12:38:39Z</time>
      </trkpt>
      <trkpt lat="43.47063" lon="-0.93475">
        <ele>49.16</ele>
        <time>2013-04-25T12:38:49Z</time>
      </trkpt>
      <trkpt lat="43.47068" lon="-0.93464">
        <ele>48.68</ele>
        <time>2013-04-25T12:38:58Z</time>
      </trkpt>
      <trkpt lat="43.47074" lon="-0.93452">
        <ele>48.68</ele>
        <time>2013-04-25T12:39:07Z</time>
      </trkpt>
      <trkpt lat="43.47079" lon="-0.9344">
        <ele>48.2</ele>
        <time>2013-04-25T12:39:17Z</time>
      </trkpt>
      <trkpt lat="43.47077" lon="-0.93427">
        <ele>47.72</ele>
        <time>2013-04-25T12:39:29Z</time>
      </trkpt>
      <trkpt lat="43.47078" lon="-0.93417">
        <ele>48.2</ele>
        <time>2013-04-25T12:39:43Z</time>
      </trkpt>
      <trkpt lat="43.47082" lon="-0.93404">
        <ele>48.68</ele>
        <time>2013-04-25T12:39:54Z</time>
      </trkpt>
      <trkpt lat="43.47086" lon="-0.93394">
        <ele>48.68</ele>
        <time>2013-04-25T12:40:05Z</time>
      </trkpt>
      <trkpt lat="43.4709" lon="-0.93381">
        <ele>49.16</ele>
        <time>2013-04-25T12:40:17Z</time>
      </trkpt>
      <trkpt lat="43.47094" lon="-0.9337">
        <ele>49.16</ele>
        <time>2013-04-25T12:40:28Z</time>
      </trkpt>
      <trkpt lat="43.47098" lon="-0.93358">
        <ele>49.65</ele>
        <time>2013-04-25T12:40:39Z</time>
      </trkpt>
      <trkpt lat="43.47102" lon="-0.93346">
        <ele>50.61</ele>
        <time>2013-04-25T12:40:49Z</time>
      </trkpt>
      <trkpt lat="43.47103" lon="-0.93333">
        <ele>51.09</ele>
        <time>2013-04-25T12:40:59Z</time>
      </trkpt>
      <trkpt lat="43.47106" lon="-0.93321">
        <ele>51.57</ele>
        <time>2013-04-25T12:41:22Z</time>
      </trkpt>
      <trkpt lat="43.47108" lon="-0.93308">
        <ele>51.57</ele>
        <time>2013-04-25T12:41:32Z</time>
      </trkpt>
      <trkpt lat="43.47109" lon="-0.93294">
        <ele>53.01</ele>
        <time>2013-04-25T12:41:42Z</time>
      </trkpt>
      <trkpt lat="43.47112" lon="-0.9328">
        <ele>53.49</ele>
        <time>2013-04-25T12:41:51Z</time>
      </trkpt>
      <trkpt lat="43.47114" lon="-0.93267">
        <ele>53.49</ele>
        <time>2013-04-25T12:42:00Z</time>
      </trkpt>
      <trkpt lat="43.47119" lon="-0.93255">
        <ele>54.45</ele>
        <time>2013-04-25T12:42:10Z</time>
      </trkpt>
      <trkpt lat="43.47124" lon="-0.93242">
        <ele>54.45</ele>
        <time>2013-04-25T12:42:20Z</time>
      </trkpt>
      <trkpt lat="43.47125" lon="-0.9323">
        <ele>54.45</ele>
        <time>2013-04-25T12:42:29Z</time>
      </trkpt>
      <trkpt lat="43.47129" lon="-0.93219">
        <ele>54.45</ele>
        <time>2013-04-25T12:42:44Z</time>
      </trkpt>
      <trkpt lat="43.47134" lon="-0.93208">
        <ele>54.93</ele>
        <time>2013-04-25T12:42:54Z</time>
      </trkpt>
      <trkpt lat="43.47139" lon="-0.93197">
        <ele>54.45</ele>
        <time>2013-04-25T12:43:03Z</time>
      </trkpt>
      <trkpt lat="43.47143" lon="-0.93187">
        <ele>54.45</ele>
        <time>2013-04-25T12:43:12Z</time>
      </trkpt>
      <trkpt lat="43.47149" lon="-0.93176">
        <ele>54.93</ele>
        <time>2013-04-25T12:43:20Z</time>
      </trkpt>
      <trkpt lat="43.47155" lon="-0.93166">
        <ele>54.93</ele>
        <time>2013-04-25T12:43:28Z</time>
      </trkpt>
      <trkpt lat="43.4716" lon="-0.93156">
        <ele>54.45</ele>
        <time>2013-04-25T12:43:36Z</time>
      </trkpt>
      <trkpt lat="43.47166" lon="-0.93145">
        <ele>53.97</ele>
        <time>2013-04-25T12:43:44Z</time>
      </trkpt>
      <trkpt lat="43.4717" lon="-0.93134">
        <ele>54.45</ele>
        <time>2013-04-25T12:43:53Z</time>
      </trkpt>
      <trkpt lat="43.47176" lon="-0.93122">
        <ele>53.97</ele>
        <time>2013-04-25T12:44:02Z</time>
      </trkpt>
      <trkpt lat="43.47181" lon="-0.93113">
        <ele>53.97</ele>
        <time>2013-04-25T12:44:10Z</time>
      </trkpt>
      <trkpt lat="43.47184" lon="-0.93101">
        <ele>53.97</ele>
        <time>2013-04-25T12:44:18Z</time>
      </trkpt>
      <trkpt lat="43.47183" lon="-0.93091">
        <ele>53.49</ele>
        <time>2013-04-25T12:44:40Z</time>
      </trkpt>
      <trkpt lat="43.4718" lon="-0.93086">
        <ele>53.97</ele>
        <time>2013-04-25T12:44:53Z</time>
      </trkpt>
      <trkpt lat="43.47177" lon="-0.93073">
        <ele>53.49</ele>
        <time>2013-04-25T12:46:23Z</time>
      </trkpt>
    </trkseg>
  </trk>
</gpx>